<?xml version="1.0" encoding="UTF-8" standalone="no" ?>
<gpx xmlns="http://www.topografix.com/GPX/1/1" xmlns:xsi="http://www.w3.org/2001/XMLSchema-instance" xsi:schemaLocation="http://www.topografix.com/GPX/1/1 http://www.topografix.com/GPX/1/1/gpx.xsd" version="1.1" creator="VisuGPX - https://www.visugpx.com">
  <metadata>
    <name>Boucle Pont en bois sur le marais – Pont des Basses au départ de La Pinède</name>
  </metadata>
  <trk>
    <name><![CDATA[Boucle Pont en bois sur le marais – Pont des Basses au départ de La Pinède]]></name>
    <trkseg>
      <trkpt lat="42.69418" lon="2.88194">
        <ele>33.054215</ele>
        <time>2025-06-27T19:13:47.975Z</time>
      </trkpt>
      <trkpt lat="42.69429" lon="2.88234">
        <ele>33.054215</ele>
        <time>2025-06-27T19:13:55.611Z</time>
      </trkpt>
      <trkpt lat="42.6944" lon="2.88275">
        <ele>33.054215</ele>
        <time>2025-06-27T19:14:03.093Z</time>
      </trkpt>
      <trkpt lat="42.69455" lon="2.8833">
        <ele>33.166712</ele>
        <time>2025-06-27T19:14:13.059Z</time>
      </trkpt>
      <trkpt lat="42.69489" lon="2.8845">
        <ele>33.802739</ele>
        <time>2025-06-27T19:14:36.976Z</time>
      </trkpt>
      <trkpt lat="42.69479" lon="2.88457">
        <ele>33.873734</ele>
        <time>2025-06-27T19:14:39.969Z</time>
      </trkpt>
      <trkpt lat="42.69475" lon="2.8846">
        <ele>33.905039</ele>
        <time>2025-06-27T19:14:41.298Z</time>
      </trkpt>
      <trkpt lat="42.69443" lon="2.8848">
        <ele>34.144083</ele>
        <time>2025-06-27T19:14:51.469Z</time>
      </trkpt>
      <trkpt lat="42.69439" lon="2.88483">
        <ele>34.171041</ele>
        <time>2025-06-27T19:14:52.631Z</time>
      </trkpt>
      <trkpt lat="42.69377" lon="2.88525">
        <ele>34.509033</ele>
        <time>2025-06-27T19:15:12.482Z</time>
      </trkpt>
      <trkpt lat="42.69318" lon="2.88561">
        <ele>34.796952</ele>
        <time>2025-06-27T19:15:29.380Z</time>
      </trkpt>
      <trkpt lat="42.69355" lon="2.88629">
        <ele>35.052097</ele>
        <time>2025-06-27T19:15:42.230Z</time>
      </trkpt>
      <trkpt lat="42.69383" lon="2.88677">
        <ele>34.99527</ele>
        <time>2025-06-27T19:15:51.520Z</time>
      </trkpt>
      <trkpt lat="42.69397" lon="2.88704">
        <ele>34.964903</ele>
        <time>2025-06-27T19:15:56.633Z</time>
      </trkpt>
      <trkpt lat="42.69392" lon="2.88709">
        <ele>34.956761</ele>
        <time>2025-06-27T19:15:58.026Z</time>
      </trkpt>
      <trkpt lat="42.69385" lon="2.88719">
        <ele>34.944055</ele>
        <time>2025-06-27T19:16:00.182Z</time>
      </trkpt>
      <trkpt lat="42.69372" lon="2.88738">
        <ele>34.920289</ele>
        <time>2025-06-27T19:16:04.436Z</time>
      </trkpt>
      <trkpt lat="42.69391" lon="2.88768">
        <ele>34.883401</ele>
        <time>2025-06-27T19:16:10.765Z</time>
      </trkpt>
      <trkpt lat="42.69402" lon="2.88789">
        <ele>34.858969</ele>
        <time>2025-06-27T19:16:15.193Z</time>
      </trkpt>
      <trkpt lat="42.69398" lon="2.88815">
        <ele>34.834295</ele>
        <time>2025-06-27T19:16:20.032Z</time>
      </trkpt>
      <trkpt lat="42.69359" lon="2.88871">
        <ele>35.374768</ele>
        <time>2025-06-27T19:16:35.779Z</time>
      </trkpt>
      <trkpt lat="42.69352" lon="2.88881">
        <ele>35.476961</ele>
        <time>2025-06-27T19:16:38.579Z</time>
      </trkpt>
      <trkpt lat="42.69358" lon="2.88971">
        <ele>36.145955</ele>
        <time>2025-06-27T19:16:57.240Z</time>
      </trkpt>
      <trkpt lat="42.69223" lon="2.8915">
        <ele>38.055279</ele>
        <time>2025-06-27T19:17:49.471Z</time>
      </trkpt>
      <trkpt lat="42.6918" lon="2.89207">
        <ele>38.605325</ele>
        <time>2025-06-27T19:18:04.869Z</time>
      </trkpt>
      <trkpt lat="42.69169" lon="2.89221">
        <ele>38.715014</ele>
        <time>2025-06-27T19:18:08.933Z</time>
      </trkpt>
      <trkpt lat="42.69166" lon="2.89263">
        <ele>38.940161</ele>
        <time>2025-06-27T19:18:17.206Z</time>
      </trkpt>
      <trkpt lat="42.69162" lon="2.89315">
        <ele>39.221632</ele>
        <time>2025-06-27T19:18:26.944Z</time>
      </trkpt>
      <trkpt lat="42.6916" lon="2.89318">
        <ele>39.243797</ele>
        <time>2025-06-27T19:18:27.722Z</time>
      </trkpt>
      <trkpt lat="42.69144" lon="2.89332">
        <ele>39.386211</ele>
        <time>2025-06-27T19:18:32.407Z</time>
      </trkpt>
      <trkpt lat="42.69102" lon="2.89352">
        <ele>39.708135</ele>
        <time>2025-06-27T19:18:43.487Z</time>
      </trkpt>
      <trkpt lat="42.69034" lon="2.89387">
        <ele>40.578371</ele>
        <time>2025-06-27T19:19:03.110Z</time>
      </trkpt>
      <trkpt lat="42.69024" lon="2.89392">
        <ele>40.716469</ele>
        <time>2025-06-27T19:19:05.957Z</time>
      </trkpt>
      <trkpt lat="42.69013" lon="2.89397">
        <ele>40.861486</ele>
        <time>2025-06-27T19:19:08.972Z</time>
      </trkpt>
      <trkpt lat="42.69015" lon="2.89405">
        <ele>40.940419</ele>
        <time>2025-06-27T19:19:10.676Z</time>
      </trkpt>
      <trkpt lat="42.69018" lon="2.89413">
        <ele>41.025094</ele>
        <time>2025-06-27T19:19:12.488Z</time>
      </trkpt>
      <trkpt lat="42.69011" lon="2.89485">
        <ele>41.695688</ele>
        <time>2025-06-27T19:19:27.807Z</time>
      </trkpt>
      <trkpt lat="42.69" lon="2.89621">
        <ele>43.510735</ele>
        <time>2025-06-27T19:20:01.527Z</time>
      </trkpt>
      <trkpt lat="42.68994" lon="2.89672">
        <ele>44.282205</ele>
        <time>2025-06-27T19:20:14.187Z</time>
      </trkpt>
      <trkpt lat="42.68985" lon="2.89693">
        <ele>44.647695</ele>
        <time>2025-06-27T19:20:20.049Z</time>
      </trkpt>
      <trkpt lat="42.68945" lon="2.8976">
        <ele>45.892848</ele>
        <time>2025-06-27T19:20:40.054Z</time>
      </trkpt>
      <trkpt lat="42.68907" lon="2.89823">
        <ele>46.844635</ele>
        <time>2025-06-27T19:20:58.292Z</time>
      </trkpt>
      <trkpt lat="42.68847" lon="2.89899">
        <ele>48.141405</ele>
        <time>2025-06-27T19:21:23.505Z</time>
      </trkpt>
      <trkpt lat="42.68841" lon="2.89908">
        <ele>48.285422</ele>
        <time>2025-06-27T19:21:26.054Z</time>
      </trkpt>
      <trkpt lat="42.68833" lon="2.89944">
        <ele>48.606535</ele>
        <time>2025-06-27T19:21:33.709Z</time>
      </trkpt>
      <trkpt lat="42.68816" lon="2.90022">
        <ele>48.812557</ele>
        <time>2025-06-27T19:21:50.159Z</time>
      </trkpt>
      <trkpt lat="42.68814" lon="2.90033">
        <ele>48.841902</ele>
        <time>2025-06-27T19:21:52.362Z</time>
      </trkpt>
      <trkpt lat="42.68804" lon="2.90039">
        <ele>48.878106</ele>
        <time>2025-06-27T19:21:54.998Z</time>
      </trkpt>
      <trkpt lat="42.68777" lon="2.90053">
        <ele>48.977212</ele>
        <time>2025-06-27T19:22:01.742Z</time>
      </trkpt>
      <trkpt lat="42.68759" lon="2.9006">
        <ele>49.043201</ele>
        <time>2025-06-27T19:22:05.781Z</time>
      </trkpt>
      <trkpt lat="42.68746" lon="2.90062">
        <ele>49.089026</ele>
        <time>2025-06-27T19:22:08.528Z</time>
      </trkpt>
      <trkpt lat="42.68743" lon="2.90074">
        <ele>49.118614</ele>
        <time>2025-06-27T19:22:10.300Z</time>
      </trkpt>
      <trkpt lat="42.68738" lon="2.90099">
        <ele>49.183904</ele>
        <time>2025-06-27T19:22:14.171Z</time>
      </trkpt>
      <trkpt lat="42.68733" lon="2.90127">
        <ele>49.087152</ele>
        <time>2025-06-27T19:22:18.622Z</time>
      </trkpt>
      <trkpt lat="42.68731" lon="2.90137">
        <ele>49.046256</ele>
        <time>2025-06-27T19:22:20.151Z</time>
      </trkpt>
      <trkpt lat="42.68724" lon="2.90169">
        <ele>48.909442</ele>
        <time>2025-06-27T19:22:25.255Z</time>
      </trkpt>
      <trkpt lat="42.68722" lon="2.90179">
        <ele>48.868149</ele>
        <time>2025-06-27T19:22:26.807Z</time>
      </trkpt>
      <trkpt lat="42.68721" lon="2.90188">
        <ele>48.82765</ele>
        <time>2025-06-27T19:22:28.326Z</time>
      </trkpt>
      <trkpt lat="42.68705" lon="2.90267">
        <ele>48.493691</ele>
        <time>2025-06-27T19:22:40.833Z</time>
      </trkpt>
      <trkpt lat="42.68693" lon="2.90303">
        <ele>48.329591</ele>
        <time>2025-06-27T19:22:47.028Z</time>
      </trkpt>
      <trkpt lat="42.68688" lon="2.90325">
        <ele>48.235139</ele>
        <time>2025-06-27T19:22:50.515Z</time>
      </trkpt>
      <trkpt lat="42.68676" lon="2.90377">
        <ele>47.90166</ele>
        <time>2025-06-27T19:22:58.709Z</time>
      </trkpt>
      <trkpt lat="42.68672" lon="2.90396">
        <ele>47.769404</ele>
        <time>2025-06-27T19:23:01.713Z</time>
      </trkpt>
      <trkpt lat="42.68663" lon="2.9045">
        <ele>47.402684</ele>
        <time>2025-06-27T19:23:09.923Z</time>
      </trkpt>
      <trkpt lat="42.68654" lon="2.90494">
        <ele>47.100235</ele>
        <time>2025-06-27T19:23:16.597Z</time>
      </trkpt>
      <trkpt lat="42.68642" lon="2.9055">
        <ele>46.717468</ele>
        <time>2025-06-27T19:23:24.821Z</time>
      </trkpt>
      <trkpt lat="42.68634" lon="2.90591">
        <ele>46.442957</ele>
        <time>2025-06-27T19:23:30.916Z</time>
      </trkpt>
      <trkpt lat="42.68625" lon="2.90643">
        <ele>46.112045</ele>
        <time>2025-06-27T19:23:38.771Z</time>
      </trkpt>
      <trkpt lat="42.68625" lon="2.9065">
        <ele>46.063639</ele>
        <time>2025-06-27T19:23:39.945Z</time>
      </trkpt>
      <trkpt lat="42.68627" lon="2.90672">
        <ele>45.931932</ele>
        <time>2025-06-27T19:23:43.179Z</time>
      </trkpt>
      <trkpt lat="42.68617" lon="2.90686">
        <ele>45.809417</ele>
        <time>2025-06-27T19:23:46.192Z</time>
      </trkpt>
      <trkpt lat="42.68614" lon="2.90699">
        <ele>45.72716</ele>
        <time>2025-06-27T19:23:48.222Z</time>
      </trkpt>
      <trkpt lat="42.68614" lon="2.9071">
        <ele>45.655946</ele>
        <time>2025-06-27T19:23:49.962Z</time>
      </trkpt>
      <trkpt lat="42.68615" lon="2.90719">
        <ele>45.600377</ele>
        <time>2025-06-27T19:23:51.342Z</time>
      </trkpt>
      <trkpt lat="42.68609" lon="2.90737">
        <ele>45.477904</ele>
        <time>2025-06-27T19:23:54.343Z</time>
      </trkpt>
      <trkpt lat="42.68604" lon="2.90753">
        <ele>45.367994</ele>
        <time>2025-06-27T19:23:56.986Z</time>
      </trkpt>
      <trkpt lat="42.6857" lon="2.90799">
        <ele>44.97814</ele>
        <time>2025-06-27T19:24:06.581Z</time>
      </trkpt>
      <trkpt lat="42.68555" lon="2.90815">
        <ele>44.838482</ele>
        <time>2025-06-27T19:24:10.517Z</time>
      </trkpt>
      <trkpt lat="42.6854" lon="2.90827">
        <ele>44.713581</ele>
        <time>2025-06-27T19:24:13.986Z</time>
      </trkpt>
      <trkpt lat="42.68545" lon="2.90834">
        <ele>44.658687</ele>
        <time>2025-06-27T19:24:15.470Z</time>
      </trkpt>
      <trkpt lat="42.68552" lon="2.90838">
        <ele>44.601535</ele>
        <time>2025-06-27T19:24:17.070Z</time>
      </trkpt>
      <trkpt lat="42.6858" lon="2.90835">
        <ele>44.400268</ele>
        <time>2025-06-27T19:24:22.648Z</time>
      </trkpt>
      <trkpt lat="42.68605" lon="2.9083">
        <ele>44.222572</ele>
        <time>2025-06-27T19:24:27.734Z</time>
      </trkpt>
      <trkpt lat="42.68603" lon="2.90846">
        <ele>44.137922</ele>
        <time>2025-06-27T19:24:30.067Z</time>
      </trkpt>
      <trkpt lat="42.68606" lon="2.90857">
        <ele>44.077103</ele>
        <time>2025-06-27T19:24:31.744Z</time>
      </trkpt>
      <trkpt lat="42.68657" lon="2.90933">
        <ele>43.846912</ele>
        <time>2025-06-27T19:24:47.881Z</time>
      </trkpt>
      <trkpt lat="42.68659" lon="2.90939">
        <ele>43.862987</ele>
        <time>2025-06-27T19:24:49.121Z</time>
      </trkpt>
      <trkpt lat="42.68669" lon="2.90943">
        <ele>43.896847</ele>
        <time>2025-06-27T19:24:52.433Z</time>
      </trkpt>
      <trkpt lat="42.68684" lon="2.90968">
        <ele>43.971381</ele>
        <time>2025-06-27T19:24:59.988Z</time>
      </trkpt>
      <trkpt lat="42.68676" lon="2.90977">
        <ele>44.005388</ele>
        <time>2025-06-27T19:25:03.528Z</time>
      </trkpt>
      <trkpt lat="42.68653" lon="2.91005">
        <ele>44.102408</ele>
        <time>2025-06-27T19:25:13.932Z</time>
      </trkpt>
      <trkpt lat="42.68632" lon="2.91029">
        <ele>44.188569</ele>
        <time>2025-06-27T19:25:23.096Z</time>
      </trkpt>
      <trkpt lat="42.68609" lon="2.91065">
        <ele>44.300047</ele>
        <time>2025-06-27T19:25:34.545Z</time>
      </trkpt>
      <trkpt lat="42.68599" lon="2.91074">
        <ele>44.253131</ele>
        <time>2025-06-27T19:25:38.194Z</time>
      </trkpt>
      <trkpt lat="42.68592" lon="2.91075">
        <ele>44.174826</ele>
        <time>2025-06-27T19:25:39.750Z</time>
      </trkpt>
      <trkpt lat="42.68588" lon="2.91081">
        <ele>44.09819</ele>
        <time>2025-06-27T19:25:41.264Z</time>
      </trkpt>
      <trkpt lat="42.68589" lon="2.9109">
        <ele>44.020423</ele>
        <time>2025-06-27T19:25:42.735Z</time>
      </trkpt>
      <trkpt lat="42.68557" lon="2.91112">
        <ele>43.591431</ele>
        <time>2025-06-27T19:25:50.076Z</time>
      </trkpt>
      <trkpt lat="42.68461" lon="2.91185">
        <ele>42.273794</ele>
        <time>2025-06-27T19:26:10.633Z</time>
      </trkpt>
      <trkpt lat="42.68437" lon="2.91201">
        <ele>41.862876</ele>
        <time>2025-06-27T19:26:15.484Z</time>
      </trkpt>
      <trkpt lat="42.68421" lon="2.91217">
        <ele>41.534399</ele>
        <time>2025-06-27T19:26:19.027Z</time>
      </trkpt>
      <trkpt lat="42.68363" lon="2.91293">
        <ele>40.160887</ele>
        <time>2025-06-27T19:26:34.200Z</time>
      </trkpt>
      <trkpt lat="42.68301" lon="2.91376">
        <ele>38.67942</ele>
        <time>2025-06-27T19:26:50.747Z</time>
      </trkpt>
      <trkpt lat="42.68298" lon="2.91379">
        <ele>38.625616</ele>
        <time>2025-06-27T19:26:51.346Z</time>
      </trkpt>
      <trkpt lat="42.68271" lon="2.91421">
        <ele>37.934349</ele>
        <time>2025-06-27T19:26:58.977Z</time>
      </trkpt>
      <trkpt lat="42.68224" lon="2.91503">
        <ele>36.630802</ele>
        <time>2025-06-27T19:27:13.162Z</time>
      </trkpt>
      <trkpt lat="42.68217" lon="2.91515">
        <ele>36.43835</ele>
        <time>2025-06-27T19:27:15.280Z</time>
      </trkpt>
      <trkpt lat="42.68213" lon="2.9152">
        <ele>36.34873</ele>
        <time>2025-06-27T19:27:16.262Z</time>
      </trkpt>
      <trkpt lat="42.68205" lon="2.91522">
        <ele>36.204849</ele>
        <time>2025-06-27T19:27:17.869Z</time>
      </trkpt>
      <trkpt lat="42.68199" lon="2.91535">
        <ele>36.03718</ele>
        <time>2025-06-27T19:27:19.904Z</time>
      </trkpt>
      <trkpt lat="42.68198" lon="2.9155">
        <ele>35.941205</ele>
        <time>2025-06-27T19:27:22.009Z</time>
      </trkpt>
      <trkpt lat="42.68148" lon="2.91629">
        <ele>35.279818</ele>
        <time>2025-06-27T19:27:37.119Z</time>
      </trkpt>
      <trkpt lat="42.68061" lon="2.91769">
        <ele>34.481834</ele>
        <time>2025-06-27T19:28:05.425Z</time>
      </trkpt>
      <trkpt lat="42.68054" lon="2.91794">
        <ele>34.471768</ele>
        <time>2025-06-27T19:28:09.621Z</time>
      </trkpt>
      <trkpt lat="42.68051" lon="2.91802">
        <ele>34.46853</ele>
        <time>2025-06-27T19:28:10.990Z</time>
      </trkpt>
      <trkpt lat="42.68037" lon="2.91835">
        <ele>34.454006</ele>
        <time>2025-06-27T19:28:17.263Z</time>
      </trkpt>
      <trkpt lat="42.68001" lon="2.91906">
        <ele>34.421682</ele>
        <time>2025-06-27T19:28:31.734Z</time>
      </trkpt>
      <trkpt lat="42.67982" lon="2.91938">
        <ele>34.485668</ele>
        <time>2025-06-27T19:28:38.864Z</time>
      </trkpt>
      <trkpt lat="42.67965" lon="2.9195">
        <ele>34.596226</ele>
        <time>2025-06-27T19:28:44.987Z</time>
      </trkpt>
      <trkpt lat="42.67949" lon="2.91982">
        <ele>34.757306</ele>
        <time>2025-06-27T19:28:52.337Z</time>
      </trkpt>
      <trkpt lat="42.67918" lon="2.92025">
        <ele>35.008613</ele>
        <time>2025-06-27T19:29:04.296Z</time>
      </trkpt>
      <trkpt lat="42.67858" lon="2.92095">
        <ele>35.473068</ele>
        <time>2025-06-27T19:29:25.189Z</time>
      </trkpt>
      <trkpt lat="42.67821" lon="2.92122">
        <ele>35.834653</ele>
        <time>2025-06-27T19:29:35.958Z</time>
      </trkpt>
      <trkpt lat="42.67779" lon="2.92145">
        <ele>36.225271</ele>
        <time>2025-06-27T19:29:47.575Z</time>
      </trkpt>
      <trkpt lat="42.6774" lon="2.92164">
        <ele>36.582915</ele>
        <time>2025-06-27T19:29:58.753Z</time>
      </trkpt>
      <trkpt lat="42.67704" lon="2.92176">
        <ele>36.89914</ele>
        <time>2025-06-27T19:30:09.121Z</time>
      </trkpt>
      <trkpt lat="42.67776" lon="2.92371">
        <ele>39.677954</ele>
        <time>2025-06-27T19:31:00.548Z</time>
      </trkpt>
      <trkpt lat="42.67779" lon="2.92375">
        <ele>39.755758</ele>
        <time>2025-06-27T19:31:01.976Z</time>
      </trkpt>
      <trkpt lat="42.67822" lon="2.92376">
        <ele>40.160403</ele>
        <time>2025-06-27T19:31:15.533Z</time>
      </trkpt>
      <trkpt lat="42.67831" lon="2.92384">
        <ele>40.116236</ele>
        <time>2025-06-27T19:31:18.666Z</time>
      </trkpt>
      <trkpt lat="42.67837" lon="2.92393">
        <ele>40.077501</ele>
        <time>2025-06-27T19:31:21.383Z</time>
      </trkpt>
      <trkpt lat="42.67837" lon="2.92402">
        <ele>40.050191</ele>
        <time>2025-06-27T19:31:24.069Z</time>
      </trkpt>
      <trkpt lat="42.67851" lon="2.92444">
        <ele>39.912733</ele>
        <time>2025-06-27T19:31:37.355Z</time>
      </trkpt>
      <trkpt lat="42.67857" lon="2.92452">
        <ele>39.876507</ele>
        <time>2025-06-27T19:31:40.714Z</time>
      </trkpt>
      <trkpt lat="42.67869" lon="2.9246">
        <ele>39.821553</ele>
        <time>2025-06-27T19:31:45.621Z</time>
      </trkpt>
      <trkpt lat="42.67879" lon="2.92571">
        <ele>39.467478</ele>
        <time>2025-06-27T19:32:12.658Z</time>
      </trkpt>
      <trkpt lat="42.67878" lon="2.9263">
        <ele>38.287997</ele>
        <time>2025-06-27T19:32:26.099Z</time>
      </trkpt>
      <trkpt lat="42.67852" lon="2.92668">
        <ele>37.241952</ele>
        <time>2025-06-27T19:32:37.808Z</time>
      </trkpt>
      <trkpt lat="42.67798" lon="2.92729">
        <ele>35.324311</ele>
        <time>2025-06-27T19:32:59.678Z</time>
      </trkpt>
      <trkpt lat="42.67795" lon="2.92728">
        <ele>35.241555</ele>
        <time>2025-06-27T19:33:00.629Z</time>
      </trkpt>
      <trkpt lat="42.67792" lon="2.92732">
        <ele>35.149698</ele>
        <time>2025-06-27T19:33:01.699Z</time>
      </trkpt>
      <trkpt lat="42.67789" lon="2.92738">
        <ele>34.986959</ele>
        <time>2025-06-27T19:33:03.573Z</time>
      </trkpt>
      <trkpt lat="42.67781" lon="2.92771">
        <ele>34.483719</ele>
        <time>2025-06-27T19:33:11.633Z</time>
      </trkpt>
      <trkpt lat="42.67774" lon="2.92848">
        <ele>33.886942</ele>
        <time>2025-06-27T19:33:30.789Z</time>
      </trkpt>
      <trkpt lat="42.67771" lon="2.92866">
        <ele>33.740329</ele>
        <time>2025-06-27T19:33:35.679Z</time>
      </trkpt>
      <trkpt lat="42.67767" lon="2.92879">
        <ele>33.629238</ele>
        <time>2025-06-27T19:33:39.408Z</time>
      </trkpt>
      <trkpt lat="42.67764" lon="2.92886">
        <ele>33.574502</ele>
        <time>2025-06-27T19:33:41.241Z</time>
      </trkpt>
      <trkpt lat="42.67744" lon="2.92935">
        <ele>33.145051</ele>
        <time>2025-06-27T19:33:55.960Z</time>
      </trkpt>
      <trkpt lat="42.67684" lon="2.93077">
        <ele>32.440778</ele>
        <time>2025-06-27T19:34:39.741Z</time>
      </trkpt>
      <trkpt lat="42.67649" lon="2.93126">
        <ele>32.269479</ele>
        <time>2025-06-27T19:34:57.923Z</time>
      </trkpt>
      <trkpt lat="42.67638" lon="2.93148">
        <ele>32.200542</ele>
        <time>2025-06-27T19:35:05.214Z</time>
      </trkpt>
      <trkpt lat="42.67594" lon="2.9326">
        <ele>31.257201</ele>
        <time>2025-06-27T19:35:37.958Z</time>
      </trkpt>
      <trkpt lat="42.67586" lon="2.93241">
        <ele>31.038261</ele>
        <time>2025-06-27T19:35:41.163Z</time>
      </trkpt>
      <trkpt lat="42.67515" lon="2.93321">
        <ele>29.805223</ele>
        <time>2025-06-27T19:36:11.727Z</time>
      </trkpt>
      <trkpt lat="42.67477" lon="2.93395">
        <ele>28.628734</ele>
        <time>2025-06-27T19:36:33.132Z</time>
      </trkpt>
      <trkpt lat="42.67433" lon="2.93475">
        <ele>27.263561</ele>
        <time>2025-06-27T19:36:57.402Z</time>
      </trkpt>
      <trkpt lat="42.67427" lon="2.9348">
        <ele>27.141667</ele>
        <time>2025-06-27T19:36:59.553Z</time>
      </trkpt>
      <trkpt lat="42.67421" lon="2.93486">
        <ele>27.002094</ele>
        <time>2025-06-27T19:37:02.042Z</time>
      </trkpt>
      <trkpt lat="42.67385" lon="2.9356">
        <ele>25.863219</ele>
        <time>2025-06-27T19:37:23.511Z</time>
      </trkpt>
      <trkpt lat="42.67366" lon="2.93609">
        <ele>25.189941</ele>
        <time>2025-06-27T19:37:37.065Z</time>
      </trkpt>
      <trkpt lat="42.67311" lon="2.93747">
        <ele>23.357944</ele>
        <time>2025-06-27T19:38:15.138Z</time>
      </trkpt>
      <trkpt lat="42.67287" lon="2.938">
        <ele>22.913592</ele>
        <time>2025-06-27T19:38:30.924Z</time>
      </trkpt>
      <trkpt lat="42.67282" lon="2.93811">
        <ele>22.823712</ele>
        <time>2025-06-27T19:38:34.163Z</time>
      </trkpt>
      <trkpt lat="42.67265" lon="2.93838">
        <ele>22.572058</ele>
        <time>2025-06-27T19:38:43.218Z</time>
      </trkpt>
      <trkpt lat="42.67237" lon="2.93879">
        <ele>22.174509</ele>
        <time>2025-06-27T19:38:57.664Z</time>
      </trkpt>
      <trkpt lat="42.67231" lon="2.93894">
        <ele>22.056838</ele>
        <time>2025-06-27T19:39:01.971Z</time>
      </trkpt>
      <trkpt lat="42.67176" lon="2.94017">
        <ele>21.165612</ele>
        <time>2025-06-27T19:39:39.465Z</time>
      </trkpt>
      <trkpt lat="42.67126" lon="2.94138">
        <ele>20.366879</ele>
        <time>2025-06-27T19:40:14.989Z</time>
      </trkpt>
      <trkpt lat="42.67104" lon="2.94144">
        <ele>20.197336</ele>
        <time>2025-06-27T19:40:19.493Z</time>
      </trkpt>
      <trkpt lat="42.67086" lon="2.94149">
        <ele>20.064839</ele>
        <time>2025-06-27T19:40:23.105Z</time>
      </trkpt>
      <trkpt lat="42.67029" lon="2.94173">
        <ele>19.624692</ele>
        <time>2025-06-27T19:40:35.109Z</time>
      </trkpt>
      <trkpt lat="42.66988" lon="2.94193">
        <ele>19.299687</ele>
        <time>2025-06-27T19:40:44.127Z</time>
      </trkpt>
      <trkpt lat="42.66938" lon="2.94212">
        <ele>18.953362</ele>
        <time>2025-06-27T19:40:54.935Z</time>
      </trkpt>
      <trkpt lat="42.66873" lon="2.94215">
        <ele>18.784843</ele>
        <time>2025-06-27T19:41:08.668Z</time>
      </trkpt>
      <trkpt lat="42.66846" lon="2.94212">
        <ele>18.713673</ele>
        <time>2025-06-27T19:41:14.540Z</time>
      </trkpt>
      <trkpt lat="42.6668" lon="2.94194">
        <ele>18.315622</ele>
        <time>2025-06-27T19:41:51.007Z</time>
      </trkpt>
      <trkpt lat="42.66659" lon="2.94181">
        <ele>18.264561</ele>
        <time>2025-06-27T19:41:56.134Z</time>
      </trkpt>
      <trkpt lat="42.66667" lon="2.94306">
        <ele>17.955528</ele>
        <time>2025-06-27T19:42:29.689Z</time>
      </trkpt>
      <trkpt lat="42.66656" lon="2.94537">
        <ele>16.687664</ele>
        <time>2025-06-27T19:43:29.255Z</time>
      </trkpt>
      <trkpt lat="42.66693" lon="2.94665">
        <ele>15.580405</ele>
        <time>2025-06-27T19:44:03.614Z</time>
      </trkpt>
      <trkpt lat="42.66732" lon="2.94794">
        <ele>14.549728</ele>
        <time>2025-06-27T19:44:38.669Z</time>
      </trkpt>
      <trkpt lat="42.66754" lon="2.94832">
        <ele>14.255598</ele>
        <time>2025-06-27T19:44:50.994Z</time>
      </trkpt>
      <trkpt lat="42.66819" lon="2.949">
        <ele>13.575666</ele>
        <time>2025-06-27T19:45:19.804Z</time>
      </trkpt>
      <trkpt lat="42.66821" lon="2.94923">
        <ele>13.438176</ele>
        <time>2025-06-27T19:45:25.697Z</time>
      </trkpt>
      <trkpt lat="42.6682" lon="2.94944">
        <ele>13.320107</ele>
        <time>2025-06-27T19:45:31.371Z</time>
      </trkpt>
      <trkpt lat="42.66805" lon="2.95152">
        <ele>12.420731</ele>
        <time>2025-06-27T19:46:25.871Z</time>
      </trkpt>
      <trkpt lat="42.66801" lon="2.95176">
        <ele>12.314086</ele>
        <time>2025-06-27T19:46:32.301Z</time>
      </trkpt>
      <trkpt lat="42.66802" lon="2.95198">
        <ele>12.237731</ele>
        <time>2025-06-27T19:46:37.895Z</time>
      </trkpt>
      <trkpt lat="42.66815" lon="2.95285">
        <ele>11.927654</ele>
        <time>2025-06-27T19:47:01.344Z</time>
      </trkpt>
      <trkpt lat="42.66823" lon="2.95361">
        <ele>11.66222</ele>
        <time>2025-06-27T19:47:21.441Z</time>
      </trkpt>
      <trkpt lat="42.66834" lon="2.95513">
        <ele>11.183765</ele>
        <time>2025-06-27T19:48:02.034Z</time>
      </trkpt>
      <trkpt lat="42.66843" lon="2.95651">
        <ele>10.780785</ele>
        <time>2025-06-27T19:48:38.821Z</time>
      </trkpt>
      <trkpt lat="42.66826" lon="2.95675">
        <ele>10.600368</ele>
        <time>2025-06-27T19:48:47.629Z</time>
      </trkpt>
      <trkpt lat="42.6683" lon="2.9574">
        <ele>10.153974</ele>
        <time>2025-06-27T19:49:04.137Z</time>
      </trkpt>
      <trkpt lat="42.66825" lon="2.95766">
        <ele>9.964351</ele>
        <time>2025-06-27T19:49:11.097Z</time>
      </trkpt>
      <trkpt lat="42.66817" lon="2.95791">
        <ele>9.779384</ele>
        <time>2025-06-27T19:49:17.888Z</time>
      </trkpt>
      <trkpt lat="42.66773" lon="2.95874">
        <ele>9.070745</ele>
        <time>2025-06-27T19:49:43.380Z</time>
      </trkpt>
      <trkpt lat="42.66765" lon="2.95894">
        <ele>8.930039</ele>
        <time>2025-06-27T19:49:49.108Z</time>
      </trkpt>
      <trkpt lat="42.66747" lon="2.95968">
        <ele>8.451338</ele>
        <time>2025-06-27T19:50:09.149Z</time>
      </trkpt>
      <trkpt lat="42.66737" lon="2.96011">
        <ele>8.178723</ele>
        <time>2025-06-27T19:50:20.650Z</time>
      </trkpt>
      <trkpt lat="42.66732" lon="2.96088">
        <ele>7.711429</ele>
        <time>2025-06-27T19:50:40.587Z</time>
      </trkpt>
      <trkpt lat="42.66719" lon="2.96135">
        <ele>7.534017</ele>
        <time>2025-06-27T19:50:53.774Z</time>
      </trkpt>
      <trkpt lat="42.6669" lon="2.96217">
        <ele>7.44041</ele>
        <time>2025-06-27T19:51:17.771Z</time>
      </trkpt>
      <trkpt lat="42.66684" lon="2.96256">
        <ele>7.398968</ele>
        <time>2025-06-27T19:51:28.417Z</time>
      </trkpt>
      <trkpt lat="42.66681" lon="2.96328">
        <ele>7.324524</ele>
        <time>2025-06-27T19:51:48.044Z</time>
      </trkpt>
      <trkpt lat="42.66685" lon="2.96378">
        <ele>7.647856</ele>
        <time>2025-06-27T19:52:02.812Z</time>
      </trkpt>
      <trkpt lat="42.6669" lon="2.96403">
        <ele>7.90671</ele>
        <time>2025-06-27T19:52:10.619Z</time>
      </trkpt>
      <trkpt lat="42.66679" lon="2.96417">
        <ele>8.114297</ele>
        <time>2025-06-27T19:52:14.803Z</time>
      </trkpt>
      <trkpt lat="42.66667" lon="2.96405">
        <ele>8.315407</ele>
        <time>2025-06-27T19:52:19.011Z</time>
      </trkpt>
      <trkpt lat="42.66623" lon="2.96396">
        <ele>8.921569</ele>
        <time>2025-06-27T19:52:32.640Z</time>
      </trkpt>
      <trkpt lat="42.66592" lon="2.96391">
        <ele>9.334168</ele>
        <time>2025-06-27T19:52:42.540Z</time>
      </trkpt>
      <trkpt lat="42.66516" lon="2.96387">
        <ele>10.258355</ele>
        <time>2025-06-27T19:53:07.655Z</time>
      </trkpt>
      <trkpt lat="42.66383" lon="2.96388">
        <ele>11.756714</ele>
        <time>2025-06-27T19:53:44.307Z</time>
      </trkpt>
      <trkpt lat="42.66362" lon="2.96389">
        <ele>11.561879</ele>
        <time>2025-06-27T19:53:48.660Z</time>
      </trkpt>
      <trkpt lat="42.66333" lon="2.96384">
        <ele>11.254943</ele>
        <time>2025-06-27T19:53:54.782Z</time>
      </trkpt>
      <trkpt lat="42.66296" lon="2.96372">
        <ele>10.862593</ele>
        <time>2025-06-27T19:54:02.256Z</time>
      </trkpt>
      <trkpt lat="42.66223" lon="2.96421">
        <ele>10.03115</ele>
        <time>2025-06-27T19:54:17.468Z</time>
      </trkpt>
      <trkpt lat="42.66101" lon="2.96537">
        <ele>8.391365</ele>
        <time>2025-06-27T19:54:46.107Z</time>
      </trkpt>
      <trkpt lat="42.66092" lon="2.96547">
        <ele>8.255646</ele>
        <time>2025-06-27T19:54:48.602Z</time>
      </trkpt>
      <trkpt lat="42.66157" lon="2.96639">
        <ele>7.848997</ele>
        <time>2025-06-27T19:55:08.509Z</time>
      </trkpt>
      <trkpt lat="42.66164" lon="2.96645">
        <ele>7.839749</ele>
        <time>2025-06-27T19:55:10.282Z</time>
      </trkpt>
      <trkpt lat="42.66157" lon="2.96639">
        <ele>7.830501</ele>
        <time>2025-06-27T19:55:12.071Z</time>
      </trkpt>
      <trkpt lat="42.66092" lon="2.96547">
        <ele>7.721324</ele>
        <time>2025-06-27T19:55:33.173Z</time>
      </trkpt>
      <trkpt lat="42.66034" lon="2.96615">
        <ele>7.83834</ele>
        <time>2025-06-27T19:55:50.780Z</time>
      </trkpt>
      <trkpt lat="42.65996" lon="2.96664">
        <ele>7.931165</ele>
        <time>2025-06-27T19:56:02.760Z</time>
      </trkpt>
      <trkpt lat="42.65909" lon="2.96797">
        <ele>8.149536</ele>
        <time>2025-06-27T19:56:33.764Z</time>
      </trkpt>
      <trkpt lat="42.6586" lon="2.96854">
        <ele>8.25034</ele>
        <time>2025-06-27T19:56:48.604Z</time>
      </trkpt>
      <trkpt lat="42.65844" lon="2.96864">
        <ele>8.279334</ele>
        <time>2025-06-27T19:56:52.624Z</time>
      </trkpt>
      <trkpt lat="42.65755" lon="2.96893">
        <ele>8.425731</ele>
        <time>2025-06-27T19:57:12.797Z</time>
      </trkpt>
      <trkpt lat="42.6573" lon="2.969">
        <ele>8.467506</ele>
        <time>2025-06-27T19:57:18.858Z</time>
      </trkpt>
      <trkpt lat="42.65719" lon="2.96906">
        <ele>8.485907</ele>
        <time>2025-06-27T19:57:23.269Z</time>
      </trkpt>
      <trkpt lat="42.65713" lon="2.96912">
        <ele>8.498592</ele>
        <time>2025-06-27T19:57:26.359Z</time>
      </trkpt>
      <trkpt lat="42.6568" lon="2.96952">
        <ele>8.569357</ele>
        <time>2025-06-27T19:57:43.324Z</time>
      </trkpt>
      <trkpt lat="42.65672" lon="2.9696">
        <ele>8.585219</ele>
        <time>2025-06-27T19:57:47.062Z</time>
      </trkpt>
      <trkpt lat="42.65655" lon="2.96973">
        <ele>8.600443</ele>
        <time>2025-06-27T19:57:54.381Z</time>
      </trkpt>
      <trkpt lat="42.65634" lon="2.96984">
        <ele>8.566429</ele>
        <time>2025-06-27T19:58:03.379Z</time>
      </trkpt>
      <trkpt lat="42.65607" lon="2.97002">
        <ele>8.522022</ele>
        <time>2025-06-27T19:58:15.001Z</time>
      </trkpt>
      <trkpt lat="42.65505" lon="2.97074">
        <ele>8.35119</ele>
        <time>2025-06-27T19:58:56.586Z</time>
      </trkpt>
      <trkpt lat="42.65477" lon="2.97094">
        <ele>8.269081</ele>
        <time>2025-06-27T19:59:07.805Z</time>
      </trkpt>
      <trkpt lat="42.65445" lon="2.97122">
        <ele>8.15944</ele>
        <time>2025-06-27T19:59:21.383Z</time>
      </trkpt>
      <trkpt lat="42.65428" lon="2.97131">
        <ele>8.108314</ele>
        <time>2025-06-27T19:59:27.764Z</time>
      </trkpt>
      <trkpt lat="42.65271" lon="2.97208">
        <ele>7.707282</ele>
        <time>2025-06-27T20:00:28.745Z</time>
      </trkpt>
      <trkpt lat="42.65123" lon="2.97354">
        <ele>7.502742</ele>
        <time>2025-06-27T20:01:35.769Z</time>
      </trkpt>
      <trkpt lat="42.65066" lon="2.97408">
        <ele>7.487534</ele>
        <time>2025-06-27T20:02:01.650Z</time>
      </trkpt>
      <trkpt lat="42.64965" lon="2.97489">
        <ele>7.607418</ele>
        <time>2025-06-27T20:02:45.971Z</time>
      </trkpt>
      <trkpt lat="42.649" lon="2.97532">
        <ele>7.726012</ele>
        <time>2025-06-27T20:03:13.199Z</time>
      </trkpt>
      <trkpt lat="42.64852" lon="2.97551">
        <ele>7.842025</ele>
        <time>2025-06-27T20:03:32.397Z</time>
      </trkpt>
      <trkpt lat="42.64839" lon="2.97531">
        <ele>7.904587</ele>
        <time>2025-06-27T20:03:39.720Z</time>
      </trkpt>
      <trkpt lat="42.64814" lon="2.97504">
        <ele>8.010375</ele>
        <time>2025-06-27T20:03:52.189Z</time>
      </trkpt>
      <trkpt lat="42.64751" lon="2.97448">
        <ele>8.251675</ele>
        <time>2025-06-27T20:04:20.886Z</time>
      </trkpt>
      <trkpt lat="42.64712" lon="2.97406">
        <ele>8.420891</ele>
        <time>2025-06-27T20:04:40.667Z</time>
      </trkpt>
      <trkpt lat="42.6468" lon="2.97355">
        <ele>8.604342</ele>
        <time>2025-06-27T20:05:00.546Z</time>
      </trkpt>
      <trkpt lat="42.64615" lon="2.97233">
        <ele>9.013482</ele>
        <time>2025-06-27T20:05:43.412Z</time>
      </trkpt>
      <trkpt lat="42.64556" lon="2.97146">
        <ele>8.814443</ele>
        <time>2025-06-27T20:06:15.999Z</time>
      </trkpt>
      <trkpt lat="42.64557" lon="2.97184">
        <ele>8.744696</ele>
        <time>2025-06-27T20:06:21.995Z</time>
      </trkpt>
      <trkpt lat="42.64556" lon="2.97214">
        <ele>8.689879</ele>
        <time>2025-06-27T20:06:26.616Z</time>
      </trkpt>
      <trkpt lat="42.64551" lon="2.97241">
        <ele>8.639423</ele>
        <time>2025-06-27T20:06:30.847Z</time>
      </trkpt>
      <trkpt lat="42.64543" lon="2.97271">
        <ele>8.581987</ele>
        <time>2025-06-27T20:06:35.633Z</time>
      </trkpt>
      <trkpt lat="42.64491" lon="2.97387">
        <ele>7.983162</ele>
        <time>2025-06-27T20:06:56.162Z</time>
      </trkpt>
      <trkpt lat="42.64447" lon="2.97457">
        <ele>7.577816</ele>
        <time>2025-06-27T20:07:09.863Z</time>
      </trkpt>
      <trkpt lat="42.64425" lon="2.97486">
        <ele>7.516</ele>
        <time>2025-06-27T20:07:16.558Z</time>
      </trkpt>
      <trkpt lat="42.64387" lon="2.97537">
        <ele>7.57412</ele>
        <time>2025-06-27T20:07:28.847Z</time>
      </trkpt>
      <trkpt lat="42.64374" lon="2.97556">
        <ele>7.594265</ele>
        <time>2025-06-27T20:07:33.136Z</time>
      </trkpt>
      <trkpt lat="42.64363" lon="2.97567">
        <ele>7.608993</ele>
        <time>2025-06-27T20:07:36.307Z</time>
      </trkpt>
      <trkpt lat="42.64355" lon="2.97569">
        <ele>7.618347</ele>
        <time>2025-06-27T20:07:38.340Z</time>
      </trkpt>
      <trkpt lat="42.64351" lon="2.97579">
        <ele>7.627757</ele>
        <time>2025-06-27T20:07:40.372Z</time>
      </trkpt>
      <trkpt lat="42.64345" lon="2.97594">
        <ele>7.641038</ele>
        <time>2025-06-27T20:07:43.308Z</time>
      </trkpt>
      <trkpt lat="42.6433" lon="2.9761">
        <ele>7.661436</ele>
        <time>2025-06-27T20:07:47.856Z</time>
      </trkpt>
      <trkpt lat="42.64296" lon="2.97657">
        <ele>7.671382</ele>
        <time>2025-06-27T20:07:59.731Z</time>
      </trkpt>
      <trkpt lat="42.64253" lon="2.97719">
        <ele>7.610239</ele>
        <time>2025-06-27T20:08:13.943Z</time>
      </trkpt>
      <trkpt lat="42.64229" lon="2.97799">
        <ele>7.547965</ele>
        <time>2025-06-27T20:08:27.523Z</time>
      </trkpt>
      <trkpt lat="42.6422" lon="2.97835">
        <ele>7.521065</ele>
        <time>2025-06-27T20:08:33.302Z</time>
      </trkpt>
      <trkpt lat="42.64218" lon="2.97859">
        <ele>7.495424</ele>
        <time>2025-06-27T20:08:37.065Z</time>
      </trkpt>
      <trkpt lat="42.6422" lon="2.97875">
        <ele>7.47657</ele>
        <time>2025-06-27T20:08:39.521Z</time>
      </trkpt>
      <trkpt lat="42.64218" lon="2.9788">
        <ele>7.469176</ele>
        <time>2025-06-27T20:08:40.484Z</time>
      </trkpt>
      <trkpt lat="42.64221" lon="2.97887">
        <ele>7.459756</ele>
        <time>2025-06-27T20:08:41.731Z</time>
      </trkpt>
      <trkpt lat="42.64219" lon="2.97894">
        <ele>7.450706</ele>
        <time>2025-06-27T20:08:42.905Z</time>
      </trkpt>
      <trkpt lat="42.64206" lon="2.97954">
        <ele>7.376735</ele>
        <time>2025-06-27T20:08:52.638Z</time>
      </trkpt>
      <trkpt lat="42.64185" lon="2.98001">
        <ele>7.312161</ele>
        <time>2025-06-27T20:09:01.361Z</time>
      </trkpt>
      <trkpt lat="42.64148" lon="2.98077">
        <ele>7.21022</ele>
        <time>2025-06-27T20:09:17.051Z</time>
      </trkpt>
      <trkpt lat="42.64144" lon="2.98077">
        <ele>7.206235</ele>
        <time>2025-06-27T20:09:17.950Z</time>
      </trkpt>
      <trkpt lat="42.64141" lon="2.9808">
        <ele>7.202194</ele>
        <time>2025-06-27T20:09:18.849Z</time>
      </trkpt>
      <trkpt lat="42.64141" lon="2.98085">
        <ele>7.198026</ele>
        <time>2025-06-27T20:09:19.743Z</time>
      </trkpt>
      <trkpt lat="42.64143" lon="2.98089">
        <ele>7.193831</ele>
        <time>2025-06-27T20:09:20.617Z</time>
      </trkpt>
      <trkpt lat="42.64126" lon="2.98124">
        <ele>7.159111</ele>
        <time>2025-06-27T20:09:27.899Z</time>
      </trkpt>
      <trkpt lat="42.64119" lon="2.98131">
        <ele>7.150598</ele>
        <time>2025-06-27T20:09:29.682Z</time>
      </trkpt>
      <trkpt lat="42.64108" lon="2.98151">
        <ele>7.129447</ele>
        <time>2025-06-27T20:09:33.955Z</time>
      </trkpt>
      <trkpt lat="42.64103" lon="2.98161">
        <ele>7.120382</ele>
        <time>2025-06-27T20:09:35.783Z</time>
      </trkpt>
      <trkpt lat="42.64093" lon="2.98177">
        <ele>7.102928</ele>
        <time>2025-06-27T20:09:39.283Z</time>
      </trkpt>
      <trkpt lat="42.64087" lon="2.9818">
        <ele>7.095344</ele>
        <time>2025-06-27T20:09:40.769Z</time>
      </trkpt>
      <trkpt lat="42.64085" lon="2.98186">
        <ele>7.08981</ele>
        <time>2025-06-27T20:09:41.863Z</time>
      </trkpt>
      <trkpt lat="42.64087" lon="2.98193">
        <ele>7.084127</ele>
        <time>2025-06-27T20:09:42.987Z</time>
      </trkpt>
      <trkpt lat="42.64084" lon="2.98205">
        <ele>7.073862</ele>
        <time>2025-06-27T20:09:44.977Z</time>
      </trkpt>
      <trkpt lat="42.64072" lon="2.98237">
        <ele>7.044909</ele>
        <time>2025-06-27T20:09:50.527Z</time>
      </trkpt>
      <trkpt lat="42.64065" lon="2.98266">
        <ele>6.979828</ele>
        <time>2025-06-27T20:09:55.226Z</time>
      </trkpt>
      <trkpt lat="42.64053" lon="2.98292">
        <ele>6.811756</ele>
        <time>2025-06-27T20:09:59.898Z</time>
      </trkpt>
      <trkpt lat="42.64049" lon="2.98305">
        <ele>6.736816</ele>
        <time>2025-06-27T20:10:01.969Z</time>
      </trkpt>
      <trkpt lat="42.64043" lon="2.98323">
        <ele>6.634763</ele>
        <time>2025-06-27T20:10:04.752Z</time>
      </trkpt>
      <trkpt lat="42.64034" lon="2.98351">
        <ele>6.46732</ele>
        <time>2025-06-27T20:10:09.308Z</time>
      </trkpt>
      <trkpt lat="42.64025" lon="2.98377">
        <ele>6.316365</ele>
        <time>2025-06-27T20:10:13.417Z</time>
      </trkpt>
      <trkpt lat="42.64022" lon="2.98396">
        <ele>6.211331</ele>
        <time>2025-06-27T20:10:16.285Z</time>
      </trkpt>
      <trkpt lat="42.64019" lon="2.98407">
        <ele>6.142209</ele>
        <time>2025-06-27T20:10:18.176Z</time>
      </trkpt>
      <trkpt lat="42.64004" lon="2.98454">
        <ele>5.867411</ele>
        <time>2025-06-27T20:10:25.701Z</time>
      </trkpt>
      <trkpt lat="42.63996" lon="2.98466">
        <ele>5.78212</ele>
        <time>2025-06-27T20:10:28.072Z</time>
      </trkpt>
      <trkpt lat="42.63987" lon="2.98471">
        <ele>5.713813</ele>
        <time>2025-06-27T20:10:30.008Z</time>
      </trkpt>
      <trkpt lat="42.6396" lon="2.98481">
        <ele>5.644236</ele>
        <time>2025-06-27T20:10:36.014Z</time>
      </trkpt>
      <trkpt lat="42.63901" lon="2.98514">
        <ele>5.49596</ele>
        <time>2025-06-27T20:10:49.797Z</time>
      </trkpt>
      <trkpt lat="42.63888" lon="2.98518">
        <ele>5.464938</ele>
        <time>2025-06-27T20:10:52.747Z</time>
      </trkpt>
      <trkpt lat="42.63878" lon="2.98523">
        <ele>5.438842</ele>
        <time>2025-06-27T20:10:55.222Z</time>
      </trkpt>
      <trkpt lat="42.63865" lon="2.98524">
        <ele>5.408879</ele>
        <time>2025-06-27T20:10:58.075Z</time>
      </trkpt>
      <trkpt lat="42.6386" lon="2.98518">
        <ele>5.393562</ele>
        <time>2025-06-27T20:10:59.517Z</time>
      </trkpt>
      <trkpt lat="42.63851" lon="2.98519">
        <ele>5.371678</ele>
        <time>2025-06-27T20:11:01.634Z</time>
      </trkpt>
      <trkpt lat="42.63845" lon="2.98532">
        <ele>5.347515</ele>
        <time>2025-06-27T20:11:03.914Z</time>
      </trkpt>
      <trkpt lat="42.63837" lon="2.98543">
        <ele>5.318581</ele>
        <time>2025-06-27T20:11:06.658Z</time>
      </trkpt>
      <trkpt lat="42.63827" lon="2.9855">
        <ele>5.293697</ele>
        <time>2025-06-27T20:11:09.001Z</time>
      </trkpt>
      <trkpt lat="42.63829" lon="2.98557">
        <ele>5.270313</ele>
        <time>2025-06-27T20:11:10.215Z</time>
      </trkpt>
      <trkpt lat="42.63838" lon="2.98555">
        <ele>5.223638</ele>
        <time>2025-06-27T20:11:12.064Z</time>
      </trkpt>
      <trkpt lat="42.63845" lon="2.98567">
        <ele>5.162618</ele>
        <time>2025-06-27T20:11:14.479Z</time>
      </trkpt>
      <trkpt lat="42.63841" lon="2.98589">
        <ele>5.069911</ele>
        <time>2025-06-27T20:11:18.097Z</time>
      </trkpt>
      <trkpt lat="42.63829" lon="2.98712">
        <ele>4.564749</ele>
        <time>2025-06-27T20:11:36.868Z</time>
      </trkpt>
      <trkpt lat="42.63828" lon="2.98739">
        <ele>4.453522</ele>
        <time>2025-06-27T20:11:40.930Z</time>
      </trkpt>
      <trkpt lat="42.63819" lon="2.98841">
        <ele>3.988624</ele>
        <time>2025-06-27T20:11:56.361Z</time>
      </trkpt>
      <trkpt lat="42.63819" lon="2.98846">
        <ele>3.966994</ele>
        <time>2025-06-27T20:11:57.042Z</time>
      </trkpt>
      <trkpt lat="42.63818" lon="2.9885">
        <ele>3.948677</ele>
        <time>2025-06-27T20:11:57.608Z</time>
      </trkpt>
      <trkpt lat="42.6381" lon="2.98935">
        <ele>3.538947</ele>
        <time>2025-06-27T20:12:10.564Z</time>
      </trkpt>
      <trkpt lat="42.63795" lon="2.99088">
        <ele>2.922175</ele>
        <time>2025-06-27T20:12:34.305Z</time>
      </trkpt>
      <trkpt lat="42.63791" lon="2.99098">
        <ele>2.890195</ele>
        <time>2025-06-27T20:12:35.957Z</time>
      </trkpt>
      <trkpt lat="42.63798" lon="2.99101">
        <ele>2.861811</ele>
        <time>2025-06-27T20:12:37.984Z</time>
      </trkpt>
      <trkpt lat="42.63802" lon="2.99101">
        <ele>2.84787</ele>
        <time>2025-06-27T20:12:38.951Z</time>
      </trkpt>
      <trkpt lat="42.6381" lon="2.99103">
        <ele>2.814401</ele>
        <time>2025-06-27T20:12:41.958Z</time>
      </trkpt>
      <trkpt lat="42.63804" lon="2.99165">
        <ele>2.629086</ele>
        <time>2025-06-27T20:12:51.790Z</time>
      </trkpt>
      <trkpt lat="42.63794" lon="2.99156">
        <ele>2.580749</ele>
        <time>2025-06-27T20:12:56.105Z</time>
      </trkpt>
      <trkpt lat="42.63778" lon="2.99189">
        <ele>2.462609</ele>
        <time>2025-06-27T20:13:06.688Z</time>
      </trkpt>
      <trkpt lat="42.63788" lon="2.99196">
        <ele>2.416216</ele>
        <time>2025-06-27T20:13:09.178Z</time>
      </trkpt>
      <trkpt lat="42.63901" lon="2.99319">
        <ele>1.954115</ele>
        <time>2025-06-27T20:13:39.997Z</time>
      </trkpt>
      <trkpt lat="42.64004" lon="2.99462">
        <ele>1.598229</ele>
        <time>2025-06-27T20:14:11.577Z</time>
      </trkpt>
      <trkpt lat="42.64069" lon="2.99545">
        <ele>1.416362</ele>
        <time>2025-06-27T20:14:30.896Z</time>
      </trkpt>
      <trkpt lat="42.64101" lon="2.99598">
        <ele>1.338031</ele>
        <time>2025-06-27T20:14:41.840Z</time>
      </trkpt>
      <trkpt lat="42.64195" lon="2.99768">
        <ele>1.178411</ele>
        <time>2025-06-27T20:15:15.997Z</time>
      </trkpt>
      <trkpt lat="42.64235" lon="2.99844">
        <ele>1.20207</ele>
        <time>2025-06-27T20:15:31.412Z</time>
      </trkpt>
      <trkpt lat="42.64242" lon="2.99863">
        <ele>1.207577</ele>
        <time>2025-06-27T20:15:35.054Z</time>
      </trkpt>
      <trkpt lat="42.64208" lon="2.99902">
        <ele>1.223018</ele>
        <time>2025-06-27T20:15:46.509Z</time>
      </trkpt>
      <trkpt lat="42.64176" lon="2.99938">
        <ele>1.323197</ele>
        <time>2025-06-27T20:15:57.129Z</time>
      </trkpt>
      <trkpt lat="42.64171" lon="2.99948">
        <ele>1.348069</ele>
        <time>2025-06-27T20:15:59.477Z</time>
      </trkpt>
      <trkpt lat="42.64155" lon="3.00037">
        <ele>1.537537</ele>
        <time>2025-06-27T20:16:17.448Z</time>
      </trkpt>
      <trkpt lat="42.64122" lon="3.00168">
        <ele>1.648553</ele>
        <time>2025-06-27T20:16:44.173Z</time>
      </trkpt>
      <trkpt lat="42.64121" lon="3.00212">
        <ele>1.57149</ele>
        <time>2025-06-27T20:16:52.294Z</time>
      </trkpt>
      <trkpt lat="42.64118" lon="3.00344">
        <ele>1.342784</ele>
        <time>2025-06-27T20:17:15.200Z</time>
      </trkpt>
      <trkpt lat="42.64115" lon="3.00362">
        <ele>1.310331</ele>
        <time>2025-06-27T20:17:18.313Z</time>
      </trkpt>
      <trkpt lat="42.64111" lon="3.00571">
        <ele>0.286308</ele>
        <time>2025-06-27T20:17:53.211Z</time>
      </trkpt>
      <trkpt lat="42.64107" lon="3.00579">
        <ele>0.240786</ele>
        <time>2025-06-27T20:17:54.797Z</time>
      </trkpt>
      <trkpt lat="42.64099" lon="3.00584">
        <ele>0.182685</ele>
        <time>2025-06-27T20:17:56.810Z</time>
      </trkpt>
      <trkpt lat="42.64098" lon="3.00601">
        <ele>0.095288</ele>
        <time>2025-06-27T20:17:59.865Z</time>
      </trkpt>
      <trkpt lat="42.64102" lon="3.00611">
        <ele>0.076853</ele>
        <time>2025-06-27T20:18:01.882Z</time>
      </trkpt>
      <trkpt lat="42.64066" lon="3.00722">
        <ele>-0.086825</ele>
        <time>2025-06-27T20:18:23.441Z</time>
      </trkpt>
      <trkpt lat="42.64059" lon="3.00727">
        <ele>-0.100016</ele>
        <time>2025-06-27T20:18:25.197Z</time>
      </trkpt>
      <trkpt lat="42.64031" lon="3.00714">
        <ele>-0.154704</ele>
        <time>2025-06-27T20:18:32.476Z</time>
      </trkpt>
      <trkpt lat="42.64024" lon="3.00712">
        <ele>-0.169033</ele>
        <time>2025-06-27T20:18:34.387Z</time>
      </trkpt>
      <trkpt lat="42.6402" lon="3.00715">
        <ele>-0.176183</ele>
        <time>2025-06-27T20:18:35.334Z</time>
      </trkpt>
      <trkpt lat="42.63986" lon="3.00824">
        <ele>-0.185066</ele>
        <time>2025-06-27T20:18:56.815Z</time>
      </trkpt>
      <trkpt lat="42.63916" lon="3.00788">
        <ele>-0.108056</ele>
        <time>2025-06-27T20:19:13.978Z</time>
      </trkpt>
      <trkpt lat="42.6383" lon="3.00709">
        <ele>0.040527</ele>
        <time>2025-06-27T20:19:38.254Z</time>
      </trkpt>
      <trkpt lat="42.63813" lon="3.0074">
        <ele>0.091825</ele>
        <time>2025-06-27T20:19:45.378Z</time>
      </trkpt>
      <trkpt lat="42.63792" lon="3.00787">
        <ele>0.167244</ele>
        <time>2025-06-27T20:19:55.846Z</time>
      </trkpt>
      <trkpt lat="42.63782" lon="3.008">
        <ele>0.192099</ele>
        <time>2025-06-27T20:19:59.291Z</time>
      </trkpt>
      <trkpt lat="42.63772" lon="3.0081">
        <ele>0.21501</ele>
        <time>2025-06-27T20:20:02.454Z</time>
      </trkpt>
      <trkpt lat="42.6374" lon="3.00838">
        <ele>0.292917</ele>
        <time>2025-06-27T20:20:12.136Z</time>
      </trkpt>
      <trkpt lat="42.63733" lon="3.00848">
        <ele>0.326243</ele>
        <time>2025-06-27T20:20:14.801Z</time>
      </trkpt>
      <trkpt lat="42.63718" lon="3.00878">
        <ele>0.411753</ele>
        <time>2025-06-27T20:20:24.922Z</time>
      </trkpt>
      <trkpt lat="42.63696" lon="3.009">
        <ele>0.498785</ele>
        <time>2025-06-27T20:20:35.331Z</time>
      </trkpt>
      <trkpt lat="42.63657" lon="3.0098">
        <ele>0.72682</ele>
        <time>2025-06-27T20:21:02.970Z</time>
      </trkpt>
      <trkpt lat="42.63653" lon="3.00995">
        <ele>0.765421</ele>
        <time>2025-06-27T20:21:07.649Z</time>
      </trkpt>
      <trkpt lat="42.63651" lon="3.01015">
        <ele>0.814188</ele>
        <time>2025-06-27T20:21:13.562Z</time>
      </trkpt>
      <trkpt lat="42.63652" lon="3.01065">
        <ele>0.837714</ele>
        <time>2025-06-27T20:21:27.944Z</time>
      </trkpt>
      <trkpt lat="42.63651" lon="3.01087">
        <ele>0.825008</ele>
        <time>2025-06-27T20:21:34.327Z</time>
      </trkpt>
      <trkpt lat="42.63644" lon="3.0111">
        <ele>0.811354</ele>
        <time>2025-06-27T20:21:41.133Z</time>
      </trkpt>
      <trkpt lat="42.6363" lon="3.01135">
        <ele>0.79363</ele>
        <time>2025-06-27T20:21:49.830Z</time>
      </trkpt>
      <trkpt lat="42.63626" lon="3.01139">
        <ele>0.789664</ele>
        <time>2025-06-27T20:21:51.705Z</time>
      </trkpt>
      <trkpt lat="42.63622" lon="3.01144">
        <ele>0.785411</ele>
        <time>2025-06-27T20:21:53.743Z</time>
      </trkpt>
      <trkpt lat="42.63597" lon="3.01159">
        <ele>0.763973</ele>
        <time>2025-06-27T20:22:03.803Z</time>
      </trkpt>
      <trkpt lat="42.63593" lon="3.01166">
        <ele>0.759675</ele>
        <time>2025-06-27T20:22:04.994Z</time>
      </trkpt>
      <trkpt lat="42.63595" lon="3.01185">
        <ele>0.748528</ele>
        <time>2025-06-27T20:22:08.057Z</time>
      </trkpt>
      <trkpt lat="42.63604" lon="3.01241">
        <ele>0.711973</ele>
        <time>2025-06-27T20:22:16.832Z</time>
      </trkpt>
      <trkpt lat="42.63605" lon="3.01247">
        <ele>0.696363</ele>
        <time>2025-06-27T20:22:17.803Z</time>
      </trkpt>
      <trkpt lat="42.63613" lon="3.01261">
        <ele>0.652227</ele>
        <time>2025-06-27T20:22:20.533Z</time>
      </trkpt>
      <trkpt lat="42.63611" lon="3.01265">
        <ele>0.639122</ele>
        <time>2025-06-27T20:22:21.334Z</time>
      </trkpt>
      <trkpt lat="42.63608" lon="3.01271">
        <ele>0.62248</ele>
        <time>2025-06-27T20:22:22.352Z</time>
      </trkpt>
      <trkpt lat="42.63727" lon="3.01385">
        <ele>0.134996</ele>
        <time>2025-06-27T20:22:53.032Z</time>
      </trkpt>
      <trkpt lat="42.63742" lon="3.01399">
        <ele>0.159953</ele>
        <time>2025-06-27T20:22:57.287Z</time>
      </trkpt>
      <trkpt lat="42.63772" lon="3.01449">
        <ele>0.328421</ele>
        <time>2025-06-27T20:23:09.068Z</time>
      </trkpt>
      <trkpt lat="42.63829" lon="3.01545">
        <ele>0.647788</ele>
        <time>2025-06-27T20:23:31.771Z</time>
      </trkpt>
      <trkpt lat="42.63845" lon="3.01566">
        <ele>0.72449</ele>
        <time>2025-06-27T20:23:37.091Z</time>
      </trkpt>
      <trkpt lat="42.63865" lon="3.01585">
        <ele>0.742425</ele>
        <time>2025-06-27T20:23:43.021Z</time>
      </trkpt>
      <trkpt lat="42.63907" lon="3.01616">
        <ele>0.720058</ele>
        <time>2025-06-27T20:23:53.931Z</time>
      </trkpt>
      <trkpt lat="42.63926" lon="3.0163">
        <ele>0.710133</ele>
        <time>2025-06-27T20:23:58.527Z</time>
      </trkpt>
      <trkpt lat="42.63945" lon="3.01655">
        <ele>0.697912</ele>
        <time>2025-06-27T20:24:04.123Z</time>
      </trkpt>
      <trkpt lat="42.63953" lon="3.01671">
        <ele>0.691161</ele>
        <time>2025-06-27T20:24:07.224Z</time>
      </trkpt>
      <trkpt lat="42.63959" lon="3.01705">
        <ele>0.679304</ele>
        <time>2025-06-27T20:24:12.740Z</time>
      </trkpt>
      <trkpt lat="42.63959" lon="3.01732">
        <ele>0.669977</ele>
        <time>2025-06-27T20:24:17.177Z</time>
      </trkpt>
      <trkpt lat="42.6395" lon="3.01783">
        <ele>0.628856</ele>
        <time>2025-06-27T20:24:25.560Z</time>
      </trkpt>
      <trkpt lat="42.63927" lon="3.01878">
        <ele>0.539372</ele>
        <time>2025-06-27T20:24:41.639Z</time>
      </trkpt>
      <trkpt lat="42.6389" lon="3.0202">
        <ele>0.474227</ele>
        <time>2025-06-27T20:25:05.984Z</time>
      </trkpt>
      <trkpt lat="42.63835" lon="3.0224">
        <ele>0.595622</ele>
        <time>2025-06-27T20:25:44.960Z</time>
      </trkpt>
      <trkpt lat="42.63828" lon="3.02256">
        <ele>0.608543</ele>
        <time>2025-06-27T20:25:48.262Z</time>
      </trkpt>
      <trkpt lat="42.63825" lon="3.0231">
        <ele>0.644217</ele>
        <time>2025-06-27T20:25:57.271Z</time>
      </trkpt>
      <trkpt lat="42.63841" lon="3.02401">
        <ele>0.705581</ele>
        <time>2025-06-27T20:26:12.457Z</time>
      </trkpt>
      <trkpt lat="42.63844" lon="3.02415">
        <ele>0.715447</ele>
        <time>2025-06-27T20:26:14.887Z</time>
      </trkpt>
      <trkpt lat="42.63923" lon="3.02813">
        <ele>1.144856</ele>
        <time>2025-06-27T20:27:23.901Z</time>
      </trkpt>
      <trkpt lat="42.63929" lon="3.0284">
        <ele>1.192956</ele>
        <time>2025-06-27T20:27:28.871Z</time>
      </trkpt>
      <trkpt lat="42.6393" lon="3.02862">
        <ele>1.231145</ele>
        <time>2025-06-27T20:27:32.829Z</time>
      </trkpt>
      <trkpt lat="42.63937" lon="3.0288">
        <ele>1.267481</ele>
        <time>2025-06-27T20:27:36.618Z</time>
      </trkpt>
      <trkpt lat="42.63969" lon="3.03046">
        <ele>1.587087</ele>
        <time>2025-06-27T20:28:07.735Z</time>
      </trkpt>
      <trkpt lat="42.64001" lon="3.03212">
        <ele>1.612872</ele>
        <time>2025-06-27T20:28:35.848Z</time>
      </trkpt>
      <trkpt lat="42.64006" lon="3.03211">
        <ele>1.595066</ele>
        <time>2025-06-27T20:28:36.924Z</time>
      </trkpt>
      <trkpt lat="42.64013" lon="3.03208">
        <ele>1.569264</ele>
        <time>2025-06-27T20:28:38.476Z</time>
      </trkpt>
      <trkpt lat="42.64019" lon="3.03205">
        <ele>1.547045</ele>
        <time>2025-06-27T20:28:39.809Z</time>
      </trkpt>
      <trkpt lat="42.64023" lon="3.03208">
        <ele>1.530424</ele>
        <time>2025-06-27T20:28:40.815Z</time>
      </trkpt>
      <trkpt lat="42.64028" lon="3.03221">
        <ele>1.494666</ele>
        <time>2025-06-27T20:28:42.962Z</time>
      </trkpt>
      <trkpt lat="42.64036" lon="3.0323">
        <ele>1.456194</ele>
        <time>2025-06-27T20:28:45.244Z</time>
      </trkpt>
      <trkpt lat="42.64049" lon="3.03251">
        <ele>1.384843</ele>
        <time>2025-06-27T20:28:49.423Z</time>
      </trkpt>
      <trkpt lat="42.64115" lon="3.03287">
        <ele>1.142296</ele>
        <time>2025-06-27T20:29:04.131Z</time>
      </trkpt>
      <trkpt lat="42.64146" lon="3.033">
        <ele>1.073014</ele>
        <time>2025-06-27T20:29:10.889Z</time>
      </trkpt>
      <trkpt lat="42.64283" lon="3.0334">
        <ele>0.771812</ele>
        <time>2025-06-27T20:29:41.499Z</time>
      </trkpt>
      <trkpt lat="42.64346" lon="3.03353">
        <ele>0.83166</ele>
        <time>2025-06-27T20:29:56.062Z</time>
      </trkpt>
      <trkpt lat="42.6442" lon="3.03361">
        <ele>0.909737</ele>
        <time>2025-06-27T20:30:13.130Z</time>
      </trkpt>
      <trkpt lat="42.64457" lon="3.03362">
        <ele>0.949217</ele>
        <time>2025-06-27T20:30:21.682Z</time>
      </trkpt>
      <trkpt lat="42.64556" lon="3.03354">
        <ele>0.966668</ele>
        <time>2025-06-27T20:30:43.868Z</time>
      </trkpt>
      <trkpt lat="42.64926" lon="3.03298">
        <ele>0.918946</ele>
        <time>2025-06-27T20:32:06.529Z</time>
      </trkpt>
      <trkpt lat="42.64996" lon="3.03294">
        <ele>0.912836</ele>
        <time>2025-06-27T20:32:21.971Z</time>
      </trkpt>
      <trkpt lat="42.65202" lon="3.03301">
        <ele>0.975304</ele>
        <time>2025-06-27T20:33:08.483Z</time>
      </trkpt>
      <trkpt lat="42.65315" lon="3.03298">
        <ele>0.932215</ele>
        <time>2025-06-27T20:33:33.395Z</time>
      </trkpt>
      <trkpt lat="42.65435" lon="3.0329">
        <ele>0.76368</ele>
        <time>2025-06-27T20:33:59.733Z</time>
      </trkpt>
      <trkpt lat="42.65488" lon="3.03287">
        <ele>0.656495</ele>
        <time>2025-06-27T20:34:11.213Z</time>
      </trkpt>
      <trkpt lat="42.65632" lon="3.0328">
        <ele>0.345578</ele>
        <time>2025-06-27T20:34:42.020Z</time>
      </trkpt>
      <trkpt lat="42.65667" lon="3.03278">
        <ele>0.266414</ele>
        <time>2025-06-27T20:34:49.562Z</time>
      </trkpt>
      <trkpt lat="42.65689" lon="3.03279">
        <ele>0.217859</ele>
        <time>2025-06-27T20:34:54.223Z</time>
      </trkpt>
      <trkpt lat="42.65721" lon="3.03278">
        <ele>0.1466</ele>
        <time>2025-06-27T20:35:01.220Z</time>
      </trkpt>
      <trkpt lat="42.65729" lon="3.03278">
        <ele>0.146386</ele>
        <time>2025-06-27T20:35:03.136Z</time>
      </trkpt>
      <trkpt lat="42.65739" lon="3.03277">
        <ele>0.14614</ele>
        <time>2025-06-27T20:35:05.328Z</time>
      </trkpt>
      <trkpt lat="42.65884" lon="3.03271">
        <ele>0.142574</ele>
        <time>2025-06-27T20:35:38.303Z</time>
      </trkpt>
      <trkpt lat="42.65928" lon="3.03266">
        <ele>0.075132</ele>
        <time>2025-06-27T20:35:47.826Z</time>
      </trkpt>
      <trkpt lat="42.65942" lon="3.03253">
        <ele>0.035094</ele>
        <time>2025-06-27T20:35:51.419Z</time>
      </trkpt>
      <trkpt lat="42.65947" lon="3.03252">
        <ele>0.02303</ele>
        <time>2025-06-27T20:35:52.501Z</time>
      </trkpt>
      <trkpt lat="42.65947" lon="3.03248">
        <ele>0.015769</ele>
        <time>2025-06-27T20:35:53.588Z</time>
      </trkpt>
      <trkpt lat="42.65947" lon="3.0324">
        <ele>0.001094</ele>
        <time>2025-06-27T20:35:55.792Z</time>
      </trkpt>
      <trkpt lat="42.65946" lon="3.0323">
        <ele>-0.016477</ele>
        <time>2025-06-27T20:35:58.419Z</time>
      </trkpt>
      <trkpt lat="42.65944" lon="3.0322">
        <ele>-0.033707</ele>
        <time>2025-06-27T20:36:00.991Z</time>
      </trkpt>
      <trkpt lat="42.65943" lon="3.03214">
        <ele>-0.044972</ele>
        <time>2025-06-27T20:36:02.681Z</time>
      </trkpt>
      <trkpt lat="42.65948" lon="3.03168">
        <ele>-0.126704</ele>
        <time>2025-06-27T20:36:14.886Z</time>
      </trkpt>
      <trkpt lat="42.65955" lon="3.03121">
        <ele>-0.21219</ele>
        <time>2025-06-27T20:36:27.707Z</time>
      </trkpt>
      <trkpt lat="42.65956" lon="3.03105">
        <ele>-0.239884</ele>
        <time>2025-06-27T20:36:31.874Z</time>
      </trkpt>
      <trkpt lat="42.6596" lon="3.03096">
        <ele>-0.259093</ele>
        <time>2025-06-27T20:36:34.773Z</time>
      </trkpt>
      <trkpt lat="42.65968" lon="3.03087">
        <ele>-0.282638</ele>
        <time>2025-06-27T20:36:38.355Z</time>
      </trkpt>
      <trkpt lat="42.65972" lon="3.03071">
        <ele>-0.242889</ele>
        <time>2025-06-27T20:36:43.117Z</time>
      </trkpt>
      <trkpt lat="42.65968" lon="3.03087">
        <ele>-0.1856</ele>
        <time>2025-06-27T20:36:47.947Z</time>
      </trkpt>
      <trkpt lat="42.6596" lon="3.03096">
        <ele>-0.142253</ele>
        <time>2025-06-27T20:36:51.697Z</time>
      </trkpt>
      <trkpt lat="42.65956" lon="3.03105">
        <ele>-0.106888</ele>
        <time>2025-06-27T20:36:54.794Z</time>
      </trkpt>
      <trkpt lat="42.65955" lon="3.03121">
        <ele>-0.055902</ele>
        <time>2025-06-27T20:36:59.333Z</time>
      </trkpt>
      <trkpt lat="42.65948" lon="3.03168">
        <ele>0.101483</ele>
        <time>2025-06-27T20:37:13.554Z</time>
      </trkpt>
      <trkpt lat="42.65943" lon="3.03214">
        <ele>0.251955</ele>
        <time>2025-06-27T20:37:27.386Z</time>
      </trkpt>
      <trkpt lat="42.65944" lon="3.0322">
        <ele>0.272697</ele>
        <time>2025-06-27T20:37:29.306Z</time>
      </trkpt>
      <trkpt lat="42.65946" lon="3.0323">
        <ele>0.304416</ele>
        <time>2025-06-27T20:37:32.238Z</time>
      </trkpt>
      <trkpt lat="42.65947" lon="3.0324">
        <ele>0.336767</ele>
        <time>2025-06-27T20:37:35.219Z</time>
      </trkpt>
      <trkpt lat="42.65947" lon="3.03248">
        <ele>0.363785</ele>
        <time>2025-06-27T20:37:37.720Z</time>
      </trkpt>
      <trkpt lat="42.65947" lon="3.03252">
        <ele>0.377152</ele>
        <time>2025-06-27T20:37:38.956Z</time>
      </trkpt>
      <trkpt lat="42.65951" lon="3.03252">
        <ele>0.395683</ele>
        <time>2025-06-27T20:37:40.024Z</time>
      </trkpt>
      <trkpt lat="42.65959" lon="3.03261">
        <ele>0.443409</ele>
        <time>2025-06-27T20:37:42.815Z</time>
      </trkpt>
      <trkpt lat="42.65966" lon="3.03262">
        <ele>0.475059</ele>
        <time>2025-06-27T20:37:44.639Z</time>
      </trkpt>
      <trkpt lat="42.6599" lon="3.03265">
        <ele>0.564032</ele>
        <time>2025-06-27T20:37:50.661Z</time>
      </trkpt>
      <trkpt lat="42.66026" lon="3.03261">
        <ele>0.689825</ele>
        <time>2025-06-27T20:37:59.691Z</time>
      </trkpt>
      <trkpt lat="42.66162" lon="3.0323">
        <ele>1.137006</ele>
        <time>2025-06-27T20:38:32.049Z</time>
      </trkpt>
      <trkpt lat="42.66189" lon="3.03225">
        <ele>1.134248</ele>
        <time>2025-06-27T20:38:38.122Z</time>
      </trkpt>
      <trkpt lat="42.66256" lon="3.03221">
        <ele>1.12749</ele>
        <time>2025-06-27T20:38:52.933Z</time>
      </trkpt>
      <trkpt lat="42.66297" lon="3.03227">
        <ele>1.123351</ele>
        <time>2025-06-27T20:39:01.958Z</time>
      </trkpt>
      <trkpt lat="42.66506" lon="3.0328">
        <ele>1.099095</ele>
        <time>2025-06-27T20:39:49.236Z</time>
      </trkpt>
      <trkpt lat="42.66578" lon="3.0329">
        <ele>1.038342</ele>
        <time>2025-06-27T20:40:05.172Z</time>
      </trkpt>
      <trkpt lat="42.67188" lon="3.03312">
        <ele>0.409695</ele>
        <time>2025-06-27T20:42:19.304Z</time>
      </trkpt>
      <trkpt lat="42.67253" lon="3.0331">
        <ele>0.410195</ele>
        <time>2025-06-27T20:42:32.987Z</time>
      </trkpt>
      <trkpt lat="42.67286" lon="3.03305">
        <ele>0.481778</ele>
        <time>2025-06-27T20:42:40.181Z</time>
      </trkpt>
      <trkpt lat="42.67296" lon="3.033">
        <ele>0.505995</ele>
        <time>2025-06-27T20:42:42.684Z</time>
      </trkpt>
      <trkpt lat="42.673" lon="3.03298">
        <ele>0.51496</ele>
        <time>2025-06-27T20:42:43.597Z</time>
      </trkpt>
      <trkpt lat="42.67303" lon="3.03296">
        <ele>0.522002</ele>
        <time>2025-06-27T20:42:44.326Z</time>
      </trkpt>
      <trkpt lat="42.67308" lon="3.03297">
        <ele>0.532498</ele>
        <time>2025-06-27T20:42:45.475Z</time>
      </trkpt>
      <trkpt lat="42.67315" lon="3.03296">
        <ele>0.549354</ele>
        <time>2025-06-27T20:42:47.335Z</time>
      </trkpt>
      <trkpt lat="42.674" lon="3.03258">
        <ele>0.745535</ele>
        <time>2025-06-27T20:43:10.809Z</time>
      </trkpt>
      <trkpt lat="42.67521" lon="3.0317">
        <ele>1.13493</ele>
        <time>2025-06-27T20:43:45.648Z</time>
      </trkpt>
      <trkpt lat="42.67524" lon="3.03167">
        <ele>1.14666</ele>
        <time>2025-06-27T20:43:46.594Z</time>
      </trkpt>
      <trkpt lat="42.67527" lon="3.03163">
        <ele>1.158568</ele>
        <time>2025-06-27T20:43:47.542Z</time>
      </trkpt>
      <trkpt lat="42.67533" lon="3.03159">
        <ele>1.176463</ele>
        <time>2025-06-27T20:43:48.988Z</time>
      </trkpt>
      <trkpt lat="42.67545" lon="3.0315">
        <ele>1.21476</ele>
        <time>2025-06-27T20:43:52.018Z</time>
      </trkpt>
      <trkpt lat="42.67556" lon="3.03142">
        <ele>1.252105</ele>
        <time>2025-06-27T20:43:54.960Z</time>
      </trkpt>
      <trkpt lat="42.67564" lon="3.03137">
        <ele>1.243997</ele>
        <time>2025-06-27T20:43:56.879Z</time>
      </trkpt>
      <trkpt lat="42.67618" lon="3.03099">
        <ele>1.143826</ele>
        <time>2025-06-27T20:44:10.287Z</time>
      </trkpt>
      <trkpt lat="42.6765" lon="3.03073">
        <ele>1.081989</ele>
        <time>2025-06-27T20:44:18.645Z</time>
      </trkpt>
      <trkpt lat="42.6767" lon="3.03056">
        <ele>1.042056</ele>
        <time>2025-06-27T20:44:24.142Z</time>
      </trkpt>
      <trkpt lat="42.67685" lon="3.03037">
        <ele>1.008755</ele>
        <time>2025-06-27T20:44:28.739Z</time>
      </trkpt>
      <trkpt lat="42.67739" lon="3.02992">
        <ele>0.948623</ele>
        <time>2025-06-27T20:44:43.359Z</time>
      </trkpt>
      <trkpt lat="42.67742" lon="3.02994">
        <ele>0.947459</ele>
        <time>2025-06-27T20:44:44.333Z</time>
      </trkpt>
      <trkpt lat="42.67744" lon="3.02997">
        <ele>0.946694</ele>
        <time>2025-06-27T20:44:44.980Z</time>
      </trkpt>
      <trkpt lat="42.67748" lon="3.03001">
        <ele>0.945253</ele>
        <time>2025-06-27T20:44:46.189Z</time>
      </trkpt>
      <trkpt lat="42.67799" lon="3.02959">
        <ele>0.928244</ele>
        <time>2025-06-27T20:44:59.882Z</time>
      </trkpt>
      <trkpt lat="42.67857" lon="3.02918">
        <ele>0.909416</ele>
        <time>2025-06-27T20:45:14.286Z</time>
      </trkpt>
      <trkpt lat="42.67871" lon="3.02911">
        <ele>0.89546</ele>
        <time>2025-06-27T20:45:17.514Z</time>
      </trkpt>
      <trkpt lat="42.67921" lon="3.02885">
        <ele>0.774618</ele>
        <time>2025-06-27T20:45:29.004Z</time>
      </trkpt>
      <trkpt lat="42.67975" lon="3.02862">
        <ele>0.647201</ele>
        <time>2025-06-27T20:45:41.053Z</time>
      </trkpt>
      <trkpt lat="42.68024" lon="3.02846">
        <ele>0.533643</ele>
        <time>2025-06-27T20:45:51.870Z</time>
      </trkpt>
      <trkpt lat="42.68056" lon="3.02837">
        <ele>0.522348</ele>
        <time>2025-06-27T20:45:59.071Z</time>
      </trkpt>
      <trkpt lat="42.68129" lon="3.02826">
        <ele>0.608201</ele>
        <time>2025-06-27T20:46:16.041Z</time>
      </trkpt>
      <trkpt lat="42.68169" lon="3.02823">
        <ele>0.655266</ele>
        <time>2025-06-27T20:46:25.506Z</time>
      </trkpt>
      <trkpt lat="42.68232" lon="3.02824">
        <ele>0.723177</ele>
        <time>2025-06-27T20:46:39.762Z</time>
      </trkpt>
      <trkpt lat="42.68299" lon="3.02833">
        <ele>0.779259</ele>
        <time>2025-06-27T20:46:54.821Z</time>
      </trkpt>
      <trkpt lat="42.68326" lon="3.02839">
        <ele>0.802442</ele>
        <time>2025-06-27T20:47:00.998Z</time>
      </trkpt>
      <trkpt lat="42.68449" lon="3.02877">
        <ele>0.943946</ele>
        <time>2025-06-27T20:47:29.613Z</time>
      </trkpt>
      <trkpt lat="42.68539" lon="3.02908">
        <ele>1.082508</ele>
        <time>2025-06-27T20:47:51.456Z</time>
      </trkpt>
      <trkpt lat="42.68563" lon="3.02916">
        <ele>1.119546</ele>
        <time>2025-06-27T20:47:57.209Z</time>
      </trkpt>
      <trkpt lat="42.6861" lon="3.02927">
        <ele>1.083539</ele>
        <time>2025-06-27T20:48:07.899Z</time>
      </trkpt>
      <trkpt lat="42.68673" lon="3.0293">
        <ele>1.011739</ele>
        <time>2025-06-27T20:48:21.848Z</time>
      </trkpt>
      <trkpt lat="42.68713" lon="3.02923">
        <ele>0.965611</ele>
        <time>2025-06-27T20:48:30.558Z</time>
      </trkpt>
      <trkpt lat="42.6876" lon="3.02908">
        <ele>0.904858</ele>
        <time>2025-06-27T20:48:40.850Z</time>
      </trkpt>
      <trkpt lat="42.68801" lon="3.02887">
        <ele>0.834719</ele>
        <time>2025-06-27T20:48:50.394Z</time>
      </trkpt>
      <trkpt lat="42.68838" lon="3.02862">
        <ele>0.769816</ele>
        <time>2025-06-27T20:48:59.225Z</time>
      </trkpt>
      <trkpt lat="42.68879" lon="3.02828">
        <ele>0.692386</ele>
        <time>2025-06-27T20:49:09.773Z</time>
      </trkpt>
      <trkpt lat="42.68918" lon="3.02783">
        <ele>0.617943</ele>
        <time>2025-06-27T20:49:21.077Z</time>
      </trkpt>
      <trkpt lat="42.68919" lon="3.02781">
        <ele>0.615709</ele>
        <time>2025-06-27T20:49:21.487Z</time>
      </trkpt>
      <trkpt lat="42.68923" lon="3.02777">
        <ele>0.610358</ele>
        <time>2025-06-27T20:49:22.492Z</time>
      </trkpt>
      <trkpt lat="42.68936" lon="3.02762">
        <ele>0.59058</ele>
        <time>2025-06-27T20:49:26.349Z</time>
      </trkpt>
      <trkpt lat="42.69069" lon="3.02607">
        <ele>0.404179</ele>
        <time>2025-06-27T20:50:04.720Z</time>
      </trkpt>
      <trkpt lat="42.69091" lon="3.02583">
        <ele>0.386413</ele>
        <time>2025-06-27T20:50:10.770Z</time>
      </trkpt>
      <trkpt lat="42.69105" lon="3.02574">
        <ele>0.37685</ele>
        <time>2025-06-27T20:50:14.025Z</time>
      </trkpt>
      <trkpt lat="42.69128" lon="3.02561">
        <ele>0.360866</ele>
        <time>2025-06-27T20:50:19.481Z</time>
      </trkpt>
      <trkpt lat="42.69147" lon="3.02555">
        <ele>0.348753</ele>
        <time>2025-06-27T20:50:23.670Z</time>
      </trkpt>
      <trkpt lat="42.6917" lon="3.02552">
        <ele>0.333626</ele>
        <time>2025-06-27T20:50:28.858Z</time>
      </trkpt>
      <trkpt lat="42.69176" lon="3.02552">
        <ele>0.330005</ele>
        <time>2025-06-27T20:50:30.106Z</time>
      </trkpt>
      <trkpt lat="42.69415" lon="3.02549">
        <ele>0.861999</ele>
        <time>2025-06-27T20:51:26.721Z</time>
      </trkpt>
      <trkpt lat="42.69454" lon="3.02542">
        <ele>0.934897</ele>
        <time>2025-06-27T20:51:36.308Z</time>
      </trkpt>
      <trkpt lat="42.69516" lon="3.02525">
        <ele>1.05158</ele>
        <time>2025-06-27T20:51:50.999Z</time>
      </trkpt>
      <trkpt lat="42.69583" lon="3.02505">
        <ele>1.044972</ele>
        <time>2025-06-27T20:52:06.240Z</time>
      </trkpt>
      <trkpt lat="42.69654" lon="3.02463">
        <ele>0.746744</ele>
        <time>2025-06-27T20:52:22.667Z</time>
      </trkpt>
      <trkpt lat="42.69755" lon="3.02388">
        <ele>0.309358</ele>
        <time>2025-06-27T20:52:46.581Z</time>
      </trkpt>
      <trkpt lat="42.69754" lon="3.02375">
        <ele>0.275573</ele>
        <time>2025-06-27T20:52:48.538Z</time>
      </trkpt>
      <trkpt lat="42.69773" lon="3.02356">
        <ele>0.185378</ele>
        <time>2025-06-27T20:52:53.578Z</time>
      </trkpt>
      <trkpt lat="42.69786" lon="3.02332">
        <ele>0.103362</ele>
        <time>2025-06-27T20:53:01.405Z</time>
      </trkpt>
      <trkpt lat="42.69789" lon="3.02321">
        <ele>0.072033</ele>
        <time>2025-06-27T20:53:03.192Z</time>
      </trkpt>
      <trkpt lat="42.69803" lon="3.02304">
        <ele>0.002244</ele>
        <time>2025-06-27T20:53:07.144Z</time>
      </trkpt>
      <trkpt lat="42.69854" lon="3.02217">
        <ele>-0.241607</ele>
        <time>2025-06-27T20:53:24.735Z</time>
      </trkpt>
      <trkpt lat="42.69929" lon="3.02046">
        <ele>-0.330802</ele>
        <time>2025-06-27T20:53:57.158Z</time>
      </trkpt>
      <trkpt lat="42.69968" lon="3.01966">
        <ele>-0.023728</ele>
        <time>2025-06-27T20:54:13.304Z</time>
      </trkpt>
      <trkpt lat="42.69984" lon="3.01939">
        <ele>0.115148</ele>
        <time>2025-06-27T20:54:19.416Z</time>
      </trkpt>
      <trkpt lat="42.7003" lon="3.01873">
        <ele>0.482331</ele>
        <time>2025-06-27T20:54:36.671Z</time>
      </trkpt>
      <trkpt lat="42.70063" lon="3.01835">
        <ele>0.812872</ele>
        <time>2025-06-27T20:54:48.663Z</time>
      </trkpt>
      <trkpt lat="42.70098" lon="3.01803">
        <ele>1.338779</ele>
        <time>2025-06-27T20:55:00.621Z</time>
      </trkpt>
      <trkpt lat="42.70154" lon="3.01735">
        <ele>2.268711</ele>
        <time>2025-06-27T20:55:22.712Z</time>
      </trkpt>
      <trkpt lat="42.70175" lon="3.01711">
        <ele>2.607725</ele>
        <time>2025-06-27T20:55:30.734Z</time>
      </trkpt>
      <trkpt lat="42.70201" lon="3.01668">
        <ele>3.022533</ele>
        <time>2025-06-27T20:55:42.129Z</time>
      </trkpt>
      <trkpt lat="42.70202" lon="3.01657">
        <ele>3.083649</ele>
        <time>2025-06-27T20:55:44.345Z</time>
      </trkpt>
      <trkpt lat="42.70201" lon="3.01622">
        <ele>3.270561</ele>
        <time>2025-06-27T20:55:50.991Z</time>
      </trkpt>
      <trkpt lat="42.7021" lon="3.0158">
        <ele>3.507057</ele>
        <time>2025-06-27T20:55:59.511Z</time>
      </trkpt>
      <trkpt lat="42.70198" lon="3.01551">
        <ele>3.682955</ele>
        <time>2025-06-27T20:56:05.881Z</time>
      </trkpt>
      <trkpt lat="42.70202" lon="3.01536">
        <ele>3.766593</ele>
        <time>2025-06-27T20:56:08.813Z</time>
      </trkpt>
      <trkpt lat="42.70201" lon="3.0153">
        <ele>3.798339</ele>
        <time>2025-06-27T20:56:09.912Z</time>
      </trkpt>
      <trkpt lat="42.70196" lon="3.01526">
        <ele>3.842332</ele>
        <time>2025-06-27T20:56:11.468Z</time>
      </trkpt>
      <trkpt lat="42.70182" lon="3.01513">
        <ele>3.969731</ele>
        <time>2025-06-27T20:56:15.820Z</time>
      </trkpt>
      <trkpt lat="42.70163" lon="3.01462">
        <ele>4.256976</ele>
        <time>2025-06-27T20:56:26.054Z</time>
      </trkpt>
      <trkpt lat="42.70148" lon="3.01415">
        <ele>4.455888</ele>
        <time>2025-06-27T20:56:35.214Z</time>
      </trkpt>
      <trkpt lat="42.70137" lon="3.01383">
        <ele>4.593833</ele>
        <time>2025-06-27T20:56:41.885Z</time>
      </trkpt>
      <trkpt lat="42.70135" lon="3.01376">
        <ele>4.622978</ele>
        <time>2025-06-27T20:56:43.318Z</time>
      </trkpt>
      <trkpt lat="42.70115" lon="3.01309">
        <ele>4.905263</ele>
        <time>2025-06-27T20:56:57.027Z</time>
      </trkpt>
      <trkpt lat="42.70107" lon="3.01282">
        <ele>5.018645</ele>
        <time>2025-06-27T20:57:02.497Z</time>
      </trkpt>
      <trkpt lat="42.701" lon="3.01248">
        <ele>5.160663</ele>
        <time>2025-06-27T20:57:09.533Z</time>
      </trkpt>
      <trkpt lat="42.70093" lon="3.0121">
        <ele>5.364874</ele>
        <time>2025-06-27T20:57:17.239Z</time>
      </trkpt>
      <trkpt lat="42.7009" lon="3.01138">
        <ele>5.754638</ele>
        <time>2025-06-27T20:57:32.390Z</time>
      </trkpt>
      <trkpt lat="42.70091" lon="3.0113">
        <ele>5.797442</ele>
        <time>2025-06-27T20:57:34.109Z</time>
      </trkpt>
      <trkpt lat="42.70107" lon="3.0102">
        <ele>6.401433</ele>
        <time>2025-06-27T20:57:56.718Z</time>
      </trkpt>
      <trkpt lat="42.70107" lon="3.00993">
        <ele>6.418301</ele>
        <time>2025-06-27T20:58:01.442Z</time>
      </trkpt>
      <trkpt lat="42.7011" lon="3.00981">
        <ele>6.360873</ele>
        <time>2025-06-27T20:58:03.713Z</time>
      </trkpt>
      <trkpt lat="42.70113" lon="3.00975">
        <ele>6.330357</ele>
        <time>2025-06-27T20:58:04.882Z</time>
      </trkpt>
      <trkpt lat="42.70113" lon="3.00972">
        <ele>6.315456</ele>
        <time>2025-06-27T20:58:05.449Z</time>
      </trkpt>
      <trkpt lat="42.70111" lon="3.00966">
        <ele>6.286469</ele>
        <time>2025-06-27T20:58:06.592Z</time>
      </trkpt>
      <trkpt lat="42.70106" lon="3.00963">
        <ele>6.252441</ele>
        <time>2025-06-27T20:58:07.855Z</time>
      </trkpt>
      <trkpt lat="42.70098" lon="3.00954">
        <ele>6.189807</ele>
        <time>2025-06-27T20:58:10.176Z</time>
      </trkpt>
      <trkpt lat="42.70076" lon="3.00906">
        <ele>5.934223</ele>
        <time>2025-06-27T20:58:18.888Z</time>
      </trkpt>
      <trkpt lat="42.70058" lon="3.00877">
        <ele>5.764996</ele>
        <time>2025-06-27T20:58:24.395Z</time>
      </trkpt>
      <trkpt lat="42.70048" lon="3.00868">
        <ele>5.692093</ele>
        <time>2025-06-27T20:58:26.735Z</time>
      </trkpt>
      <trkpt lat="42.70031" lon="3.00853">
        <ele>5.566162</ele>
        <time>2025-06-27T20:58:30.668Z</time>
      </trkpt>
      <trkpt lat="42.70015" lon="3.00841">
        <ele>5.455678</ele>
        <time>2025-06-27T20:58:34.070Z</time>
      </trkpt>
      <trkpt lat="42.70006" lon="3.0083">
        <ele>5.383712</ele>
        <time>2025-06-27T20:58:36.319Z</time>
      </trkpt>
      <trkpt lat="42.69996" lon="3.00803">
        <ele>5.271292</ele>
        <time>2025-06-27T20:58:40.697Z</time>
      </trkpt>
      <trkpt lat="42.69985" lon="3.00764">
        <ele>5.118471</ele>
        <time>2025-06-27T20:58:46.904Z</time>
      </trkpt>
      <trkpt lat="42.69974" lon="3.00745">
        <ele>5.029351</ele>
        <time>2025-06-27T20:58:50.523Z</time>
      </trkpt>
      <trkpt lat="42.69955" lon="3.00726">
        <ele>4.915948</ele>
        <time>2025-06-27T20:58:55.191Z</time>
      </trkpt>
      <trkpt lat="42.69932" lon="3.00677">
        <ele>4.702304</ele>
        <time>2025-06-27T20:59:04.474Z</time>
      </trkpt>
      <trkpt lat="42.69922" lon="3.00636">
        <ele>4.546525</ele>
        <time>2025-06-27T20:59:11.783Z</time>
      </trkpt>
      <trkpt lat="42.69919" lon="3.00616">
        <ele>4.490288</ele>
        <time>2025-06-27T20:59:15.456Z</time>
      </trkpt>
      <trkpt lat="42.6992" lon="3.00583">
        <ele>4.512152</ele>
        <time>2025-06-27T20:59:21.704Z</time>
      </trkpt>
      <trkpt lat="42.69938" lon="3.00468">
        <ele>4.589816</ele>
        <time>2025-06-27T20:59:42.407Z</time>
      </trkpt>
      <trkpt lat="42.69939" lon="3.00444">
        <ele>4.606175</ele>
        <time>2025-06-27T20:59:46.321Z</time>
      </trkpt>
      <trkpt lat="42.69937" lon="3.0041">
        <ele>4.628458</ele>
        <time>2025-06-27T20:59:51.606Z</time>
      </trkpt>
      <trkpt lat="42.69931" lon="3.00387">
        <ele>4.644701</ele>
        <time>2025-06-27T20:59:55.423Z</time>
      </trkpt>
      <trkpt lat="42.69928" lon="3.00377">
        <ele>4.644447</ele>
        <time>2025-06-27T20:59:57.132Z</time>
      </trkpt>
      <trkpt lat="42.69917" lon="3.00339">
        <ele>4.574477</ele>
        <time>2025-06-27T21:00:03.393Z</time>
      </trkpt>
      <trkpt lat="42.69915" lon="3.00322">
        <ele>4.544945</ele>
        <time>2025-06-27T21:00:06.107Z</time>
      </trkpt>
      <trkpt lat="42.69921" lon="3.0029">
        <ele>4.488474</ele>
        <time>2025-06-27T21:00:11.501Z</time>
      </trkpt>
      <trkpt lat="42.69946" lon="3.00244">
        <ele>4.39032</ele>
        <time>2025-06-27T21:00:20.838Z</time>
      </trkpt>
      <trkpt lat="42.69959" lon="3.0022">
        <ele>4.339794</ele>
        <time>2025-06-27T21:00:25.773Z</time>
      </trkpt>
      <trkpt lat="42.69967" lon="3.00212">
        <ele>4.31729</ele>
        <time>2025-06-27T21:00:28.138Z</time>
      </trkpt>
      <trkpt lat="42.69971" lon="3.00212">
        <ele>4.307498</ele>
        <time>2025-06-27T21:00:29.086Z</time>
      </trkpt>
      <trkpt lat="42.69975" lon="3.00209">
        <ele>4.29709</ele>
        <time>2025-06-27T21:00:30.166Z</time>
      </trkpt>
      <trkpt lat="42.69976" lon="3.00203">
        <ele>4.286794</ele>
        <time>2025-06-27T21:00:31.299Z</time>
      </trkpt>
      <trkpt lat="42.69974" lon="3.00196">
        <ele>4.274894</ele>
        <time>2025-06-27T21:00:32.480Z</time>
      </trkpt>
      <trkpt lat="42.69976" lon="3.00185">
        <ele>4.255535</ele>
        <time>2025-06-27T21:00:34.506Z</time>
      </trkpt>
      <trkpt lat="42.70001" lon="3.00106">
        <ele>4.069316</ele>
        <time>2025-06-27T21:00:49.081Z</time>
      </trkpt>
      <trkpt lat="42.69998" lon="3.00103">
        <ele>4.058197</ele>
        <time>2025-06-27T21:00:49.847Z</time>
      </trkpt>
      <trkpt lat="42.69995" lon="3.00098">
        <ele>4.043779</ele>
        <time>2025-06-27T21:00:50.873Z</time>
      </trkpt>
      <trkpt lat="42.69995" lon="3.0008">
        <ele>4.002703</ele>
        <time>2025-06-27T21:00:53.812Z</time>
      </trkpt>
      <trkpt lat="42.69991" lon="3.00075">
        <ele>3.986803</ele>
        <time>2025-06-27T21:00:54.936Z</time>
      </trkpt>
      <trkpt lat="42.69935" lon="3.00035">
        <ele>3.791685</ele>
        <time>2025-06-27T21:01:08.130Z</time>
      </trkpt>
      <trkpt lat="42.69915" lon="3.00027">
        <ele>3.72829</ele>
        <time>2025-06-27T21:01:12.420Z</time>
      </trkpt>
      <trkpt lat="42.69896" lon="3.00023">
        <ele>3.683066</ele>
        <time>2025-06-27T21:01:16.374Z</time>
      </trkpt>
      <trkpt lat="42.6988" lon="3.00021">
        <ele>3.688972</ele>
        <time>2025-06-27T21:01:19.939Z</time>
      </trkpt>
      <trkpt lat="42.69858" lon="3.00018">
        <ele>3.697005</ele>
        <time>2025-06-27T21:01:24.726Z</time>
      </trkpt>
      <trkpt lat="42.69757" lon="3.00026">
        <ele>3.734322</ele>
        <time>2025-06-27T21:01:48.339Z</time>
      </trkpt>
      <trkpt lat="42.69753" lon="3.00026">
        <ele>3.735874</ele>
        <time>2025-06-27T21:01:49.330Z</time>
      </trkpt>
      <trkpt lat="42.69745" lon="3.00027">
        <ele>3.738942</ele>
        <time>2025-06-27T21:01:51.299Z</time>
      </trkpt>
      <trkpt lat="42.69572" lon="3.00041">
        <ele>3.770067</ele>
        <time>2025-06-27T21:02:31.179Z</time>
      </trkpt>
      <trkpt lat="42.69454" lon="3.00041">
        <ele>3.275298</ele>
        <time>2025-06-27T21:02:55.871Z</time>
      </trkpt>
      <trkpt lat="42.69432" lon="3.00046">
        <ele>3.145991</ele>
        <time>2025-06-27T21:03:00.389Z</time>
      </trkpt>
      <trkpt lat="42.69413" lon="3.00045">
        <ele>3.030625</ele>
        <time>2025-06-27T21:03:04.389Z</time>
      </trkpt>
      <trkpt lat="42.69356" lon="3.00043">
        <ele>2.715925</ele>
        <time>2025-06-27T21:03:15.827Z</time>
      </trkpt>
      <trkpt lat="42.69292" lon="3.00034">
        <ele>2.504459</ele>
        <time>2025-06-27T21:03:29.293Z</time>
      </trkpt>
      <trkpt lat="42.69199" lon="3.00017">
        <ele>2.197876</ele>
        <time>2025-06-27T21:03:49.810Z</time>
      </trkpt>
      <trkpt lat="42.69114" lon="2.9999">
        <ele>2.00263</ele>
        <time>2025-06-27T21:04:08.590Z</time>
      </trkpt>
      <trkpt lat="42.69051" lon="2.99961">
        <ele>1.870542</ele>
        <time>2025-06-27T21:04:22.818Z</time>
      </trkpt>
      <trkpt lat="42.68913" lon="2.99888">
        <ele>1.625453</ele>
        <time>2025-06-27T21:04:55.723Z</time>
      </trkpt>
      <trkpt lat="42.6891" lon="2.99887">
        <ele>1.621723</ele>
        <time>2025-06-27T21:04:56.261Z</time>
      </trkpt>
      <trkpt lat="42.68902" lon="2.99882">
        <ele>1.608391</ele>
        <time>2025-06-27T21:04:58.205Z</time>
      </trkpt>
      <trkpt lat="42.68775" lon="2.99808">
        <ele>1.374538</ele>
        <time>2025-06-27T21:05:27.729Z</time>
      </trkpt>
      <trkpt lat="42.68708" lon="2.99751">
        <ele>1.229868</ele>
        <time>2025-06-27T21:05:44.789Z</time>
      </trkpt>
      <trkpt lat="42.68678" lon="2.99736">
        <ele>1.194776</ele>
        <time>2025-06-27T21:05:51.908Z</time>
      </trkpt>
      <trkpt lat="42.68614" lon="2.99693">
        <ele>1.324837</ele>
        <time>2025-06-27T21:06:08.853Z</time>
      </trkpt>
      <trkpt lat="42.68542" lon="2.9966">
        <ele>1.461992</ele>
        <time>2025-06-27T21:06:26.797Z</time>
      </trkpt>
      <trkpt lat="42.6848" lon="2.99628">
        <ele>1.489543</ele>
        <time>2025-06-27T21:06:42.171Z</time>
      </trkpt>
      <trkpt lat="42.68302" lon="2.99546">
        <ele>1.165825</ele>
        <time>2025-06-27T21:07:23.310Z</time>
      </trkpt>
      <trkpt lat="42.68139" lon="2.99469">
        <ele>0.235966</ele>
        <time>2025-06-27T21:07:58.559Z</time>
      </trkpt>
      <trkpt lat="42.68077" lon="2.99435">
        <ele>-0.147046</ele>
        <time>2025-06-27T21:08:11.921Z</time>
      </trkpt>
      <trkpt lat="42.68023" lon="2.99396">
        <ele>-0.503844</ele>
        <time>2025-06-27T21:08:24.947Z</time>
      </trkpt>
      <trkpt lat="42.68001" lon="2.99379">
        <ele>-0.518046</ele>
        <time>2025-06-27T21:08:30.765Z</time>
      </trkpt>
      <trkpt lat="42.67941" lon="2.99341">
        <ele>-0.316779</ele>
        <time>2025-06-27T21:08:46.413Z</time>
      </trkpt>
      <trkpt lat="42.67903" lon="2.99312">
        <ele>-0.186175</ele>
        <time>2025-06-27T21:08:57.244Z</time>
      </trkpt>
      <trkpt lat="42.67883" lon="2.99291">
        <ele>-0.107657</ele>
        <time>2025-06-27T21:09:03.767Z</time>
      </trkpt>
      <trkpt lat="42.67753" lon="2.99166">
        <ele>0.561649</ele>
        <time>2025-06-27T21:09:42.089Z</time>
      </trkpt>
      <trkpt lat="42.67733" lon="2.99145">
        <ele>0.674627</ele>
        <time>2025-06-27T21:09:48.440Z</time>
      </trkpt>
      <trkpt lat="42.67712" lon="2.99118">
        <ele>0.797423</ele>
        <time>2025-06-27T21:09:55.657Z</time>
      </trkpt>
      <trkpt lat="42.67652" lon="2.99033">
        <ele>1.043123</ele>
        <time>2025-06-27T21:10:17.241Z</time>
      </trkpt>
      <trkpt lat="42.67572" lon="2.98923">
        <ele>1.276706</ele>
        <time>2025-06-27T21:10:42.547Z</time>
      </trkpt>
      <trkpt lat="42.67532" lon="2.98866">
        <ele>1.221922</ele>
        <time>2025-06-27T21:10:55.441Z</time>
      </trkpt>
      <trkpt lat="42.67516" lon="2.98848">
        <ele>1.202002</ele>
        <time>2025-06-27T21:11:00.026Z</time>
      </trkpt>
      <trkpt lat="42.67498" lon="2.98834">
        <ele>1.18302</ele>
        <time>2025-06-27T21:11:04.319Z</time>
      </trkpt>
      <trkpt lat="42.67455" lon="2.98807">
        <ele>1.137827</ele>
        <time>2025-06-27T21:11:14.613Z</time>
      </trkpt>
      <trkpt lat="42.67421" lon="2.98789">
        <ele>1.072758</ele>
        <time>2025-06-27T21:11:22.854Z</time>
      </trkpt>
      <trkpt lat="42.67385" lon="2.98779">
        <ele>0.998078</ele>
        <time>2025-06-27T21:11:30.969Z</time>
      </trkpt>
      <trkpt lat="42.67345" lon="2.98786">
        <ele>0.916618</ele>
        <time>2025-06-27T21:11:39.544Z</time>
      </trkpt>
      <trkpt lat="42.67325" lon="2.98793">
        <ele>0.874159</ele>
        <time>2025-06-27T21:11:44.084Z</time>
      </trkpt>
      <trkpt lat="42.67318" lon="2.988">
        <ele>0.856336</ele>
        <time>2025-06-27T21:11:45.944Z</time>
      </trkpt>
      <trkpt lat="42.67314" lon="2.98793">
        <ele>0.844233</ele>
        <time>2025-06-27T21:11:47.195Z</time>
      </trkpt>
      <trkpt lat="42.67313" lon="2.98786">
        <ele>0.832793</ele>
        <time>2025-06-27T21:11:48.406Z</time>
      </trkpt>
      <trkpt lat="42.67306" lon="2.98729">
        <ele>0.757354</ele>
        <time>2025-06-27T21:11:57.637Z</time>
      </trkpt>
      <trkpt lat="42.67305" lon="2.98693">
        <ele>0.741709</ele>
        <time>2025-06-27T21:12:03.524Z</time>
      </trkpt>
      <trkpt lat="42.67304" lon="2.98682">
        <ele>0.737086</ele>
        <time>2025-06-27T21:12:05.244Z</time>
      </trkpt>
      <trkpt lat="42.67291" lon="2.98592">
        <ele>0.697801</ele>
        <time>2025-06-27T21:12:20.076Z</time>
      </trkpt>
      <trkpt lat="42.67283" lon="2.98562">
        <ele>0.684348</ele>
        <time>2025-06-27T21:12:25.158Z</time>
      </trkpt>
      <trkpt lat="42.67256" lon="2.98517">
        <ele>0.659685</ele>
        <time>2025-06-27T21:12:34.762Z</time>
      </trkpt>
      <trkpt lat="42.67247" lon="2.9849">
        <ele>0.690384</ele>
        <time>2025-06-27T21:12:39.891Z</time>
      </trkpt>
      <trkpt lat="42.67228" lon="2.98452">
        <ele>0.75416</ele>
        <time>2025-06-27T21:12:47.916Z</time>
      </trkpt>
      <trkpt lat="42.67" lon="2.98017">
        <ele>1.667343</ele>
        <time>2025-06-27T21:14:19.314Z</time>
      </trkpt>
      <trkpt lat="42.67002" lon="2.98013">
        <ele>1.677507</ele>
        <time>2025-06-27T21:14:20.593Z</time>
      </trkpt>
      <trkpt lat="42.67012" lon="2.97999">
        <ele>1.721926</ele>
        <time>2025-06-27T21:14:26.161Z</time>
      </trkpt>
      <trkpt lat="42.67014" lon="2.97994">
        <ele>1.734188</ele>
        <time>2025-06-27T21:14:27.715Z</time>
      </trkpt>
      <trkpt lat="42.67016" lon="2.97988">
        <ele>1.751287</ele>
        <time>2025-06-27T21:14:29.818Z</time>
      </trkpt>
      <trkpt lat="42.67022" lon="2.9798">
        <ele>1.775519</ele>
        <time>2025-06-27T21:14:32.915Z</time>
      </trkpt>
      <trkpt lat="42.67016" lon="2.97988">
        <ele>1.799752</ele>
        <time>2025-06-27T21:14:35.939Z</time>
      </trkpt>
      <trkpt lat="42.67014" lon="2.97994">
        <ele>1.816851</ele>
        <time>2025-06-27T21:14:38.091Z</time>
      </trkpt>
      <trkpt lat="42.67012" lon="2.97999">
        <ele>1.829113</ele>
        <time>2025-06-27T21:14:39.647Z</time>
      </trkpt>
      <trkpt lat="42.67002" lon="2.98013">
        <ele>1.873532</ele>
        <time>2025-06-27T21:14:45.247Z</time>
      </trkpt>
      <trkpt lat="42.67" lon="2.98017">
        <ele>1.883696</ele>
        <time>2025-06-27T21:14:46.523Z</time>
      </trkpt>
      <trkpt lat="42.6698" lon="2.97974">
        <ele>2.011458</ele>
        <time>2025-06-27T21:14:55.706Z</time>
      </trkpt>
      <trkpt lat="42.66968" lon="2.97962">
        <ele>2.066975</ele>
        <time>2025-06-27T21:14:59.113Z</time>
      </trkpt>
      <trkpt lat="42.66861" lon="2.97883">
        <ele>2.550871</ele>
        <time>2025-06-27T21:15:29.079Z</time>
      </trkpt>
      <trkpt lat="42.66829" lon="2.97849">
        <ele>2.714143</ele>
        <time>2025-06-27T21:15:38.650Z</time>
      </trkpt>
      <trkpt lat="42.66808" lon="2.97819">
        <ele>2.844251</ele>
        <time>2025-06-27T21:15:46.048Z</time>
      </trkpt>
      <trkpt lat="42.66791" lon="2.97781">
        <ele>2.982222</ele>
        <time>2025-06-27T21:15:53.888Z</time>
      </trkpt>
      <trkpt lat="42.66771" lon="2.97721">
        <ele>3.185066</ele>
        <time>2025-06-27T21:16:05.534Z</time>
      </trkpt>
      <trkpt lat="42.66755" lon="2.97695">
        <ele>3.291059</ele>
        <time>2025-06-27T21:16:11.745Z</time>
      </trkpt>
      <trkpt lat="42.66692" lon="2.97609">
        <ele>3.694966</ele>
        <time>2025-06-27T21:16:33.887Z</time>
      </trkpt>
      <trkpt lat="42.66626" lon="2.97555">
        <ele>4.060016</ele>
        <time>2025-06-27T21:16:52.986Z</time>
      </trkpt>
      <trkpt lat="42.66594" lon="2.9752">
        <ele>4.253851</ele>
        <time>2025-06-27T21:17:03.051Z</time>
      </trkpt>
      <trkpt lat="42.66575" lon="2.97473">
        <ele>4.340049</ele>
        <time>2025-06-27T21:17:12.419Z</time>
      </trkpt>
      <trkpt lat="42.66556" lon="2.97412">
        <ele>4.426832</ele>
        <time>2025-06-27T21:17:24.029Z</time>
      </trkpt>
      <trkpt lat="42.66536" lon="2.9735">
        <ele>4.513735</ele>
        <time>2025-06-27T21:17:35.168Z</time>
      </trkpt>
      <trkpt lat="42.66479" lon="2.97146">
        <ele>4.72221</ele>
        <time>2025-06-27T21:18:10.906Z</time>
      </trkpt>
      <trkpt lat="42.66447" lon="2.97016">
        <ele>4.859902</ele>
        <time>2025-06-27T21:18:34.595Z</time>
      </trkpt>
      <trkpt lat="42.66397" lon="2.96802">
        <ele>5.171949</ele>
        <time>2025-06-27T21:19:13.107Z</time>
      </trkpt>
      <trkpt lat="42.66447" lon="2.97016">
        <ele>5.367834</ele>
        <time>2025-06-27T21:19:50.514Z</time>
      </trkpt>
      <trkpt lat="42.66449" lon="2.97016">
        <ele>5.367196</ele>
        <time>2025-06-27T21:19:50.912Z</time>
      </trkpt>
      <trkpt lat="42.66459" lon="2.97015">
        <ele>5.363522</ele>
        <time>2025-06-27T21:19:53.287Z</time>
      </trkpt>
      <trkpt lat="42.66461" lon="2.97015">
        <ele>5.362661</ele>
        <time>2025-06-27T21:19:53.832Z</time>
      </trkpt>
      <trkpt lat="42.66465" lon="2.97014">
        <ele>5.361136</ele>
        <time>2025-06-27T21:19:54.789Z</time>
      </trkpt>
      <trkpt lat="42.66529" lon="2.97001">
        <ele>5.337038</ele>
        <time>2025-06-27T21:20:10.770Z</time>
      </trkpt>
      <trkpt lat="42.66609" lon="2.96986">
        <ele>5.306636</ele>
        <time>2025-06-27T21:20:29.124Z</time>
      </trkpt>
      <trkpt lat="42.66635" lon="2.96976">
        <ele>5.259253</ele>
        <time>2025-06-27T21:20:35.069Z</time>
      </trkpt>
      <trkpt lat="42.66652" lon="2.96971">
        <ele>5.211371</ele>
        <time>2025-06-27T21:20:38.665Z</time>
      </trkpt>
      <trkpt lat="42.66658" lon="2.9697">
        <ele>5.191975</ele>
        <time>2025-06-27T21:20:40.111Z</time>
      </trkpt>
      <trkpt lat="42.66666" lon="2.96972">
        <ele>5.170529</ele>
        <time>2025-06-27T21:20:41.722Z</time>
      </trkpt>
      <trkpt lat="42.66666" lon="2.96943">
        <ele>5.109069</ele>
        <time>2025-06-27T21:20:49.282Z</time>
      </trkpt>
      <trkpt lat="42.66695" lon="2.96836">
        <ele>4.867083</ele>
        <time>2025-06-27T21:21:19.285Z</time>
      </trkpt>
      <trkpt lat="42.66702" lon="2.9671">
        <ele>5.085582</ele>
        <time>2025-06-27T21:21:55.112Z</time>
      </trkpt>
      <trkpt lat="42.66707" lon="2.96389">
        <ele>6.354614</ele>
        <time>2025-06-27T21:23:29.998Z</time>
      </trkpt>
      <trkpt lat="42.66704" lon="2.96392">
        <ele>6.378672</ele>
        <time>2025-06-27T21:23:31.015Z</time>
      </trkpt>
      <trkpt lat="42.66692" lon="2.96402">
        <ele>6.464419</ele>
        <time>2025-06-27T21:23:34.680Z</time>
      </trkpt>
      <trkpt lat="42.6669" lon="2.96403">
        <ele>6.475344</ele>
        <time>2025-06-27T21:23:35.154Z</time>
      </trkpt>
      <trkpt lat="42.66685" lon="2.96378">
        <ele>6.589493</ele>
        <time>2025-06-27T21:23:42.863Z</time>
      </trkpt>
      <trkpt lat="42.66681" lon="2.96328">
        <ele>6.787625</ele>
        <time>2025-06-27T21:23:57.549Z</time>
      </trkpt>
      <trkpt lat="42.66684" lon="2.96256">
        <ele>7.030765</ele>
        <time>2025-06-27T21:24:18.378Z</time>
      </trkpt>
      <trkpt lat="42.6669" lon="2.96217">
        <ele>7.16612</ele>
        <time>2025-06-27T21:24:29.910Z</time>
      </trkpt>
      <trkpt lat="42.66719" lon="2.96135">
        <ele>7.471846</ele>
        <time>2025-06-27T21:24:55.895Z</time>
      </trkpt>
      <trkpt lat="42.66732" lon="2.96088">
        <ele>7.721594</ele>
        <time>2025-06-27T21:25:10.529Z</time>
      </trkpt>
      <trkpt lat="42.66737" lon="2.96011">
        <ele>8.181382</ele>
        <time>2025-06-27T21:25:33.326Z</time>
      </trkpt>
      <trkpt lat="42.66747" lon="2.95968">
        <ele>8.449619</ele>
        <time>2025-06-27T21:25:46.894Z</time>
      </trkpt>
      <trkpt lat="42.66765" lon="2.95894">
        <ele>8.920631</ele>
        <time>2025-06-27T21:26:11.055Z</time>
      </trkpt>
      <trkpt lat="42.66773" lon="2.95874">
        <ele>9.065736</ele>
        <time>2025-06-27T21:26:18.120Z</time>
      </trkpt>
      <trkpt lat="42.66817" lon="2.95791">
        <ele>9.782997</ele>
        <time>2025-06-27T21:26:50.907Z</time>
      </trkpt>
      <trkpt lat="42.66825" lon="2.95766">
        <ele>9.970214</ele>
        <time>2025-06-27T21:26:59.146Z</time>
      </trkpt>
      <trkpt lat="42.6683" lon="2.9574">
        <ele>10.162143</ele>
        <time>2025-06-27T21:27:07.627Z</time>
      </trkpt>
      <trkpt lat="42.66826" lon="2.95675">
        <ele>10.613968</ele>
        <time>2025-06-27T21:27:27.237Z</time>
      </trkpt>
      <trkpt lat="42.66843" lon="2.95651">
        <ele>10.772715</ele>
        <time>2025-06-27T21:27:37.323Z</time>
      </trkpt>
      <trkpt lat="42.66834" lon="2.95513">
        <ele>11.180807</ele>
        <time>2025-06-27T21:28:16.626Z</time>
      </trkpt>
      <trkpt lat="42.66823" lon="2.95361">
        <ele>11.664026</ele>
        <time>2025-06-27T21:29:00.104Z</time>
      </trkpt>
      <trkpt lat="42.66815" lon="2.95285">
        <ele>11.927494</ele>
        <time>2025-06-27T21:29:22.380Z</time>
      </trkpt>
      <trkpt lat="42.66802" lon="2.95198">
        <ele>12.235273</ele>
        <time>2025-06-27T21:29:48.379Z</time>
      </trkpt>
      <trkpt lat="42.66801" lon="2.95176">
        <ele>12.316092</ele>
        <time>2025-06-27T21:29:54.632Z</time>
      </trkpt>
      <trkpt lat="42.66805" lon="2.95152">
        <ele>12.42228</ele>
        <time>2025-06-27T21:30:01.906Z</time>
      </trkpt>
      <trkpt lat="42.6682" lon="2.94944">
        <ele>13.317799</ele>
        <time>2025-06-27T21:31:03.238Z</time>
      </trkpt>
      <trkpt lat="42.66821" lon="2.94923">
        <ele>13.444853</ele>
        <time>2025-06-27T21:31:09.634Z</time>
      </trkpt>
      <trkpt lat="42.66819" lon="2.949">
        <ele>13.580678</ele>
        <time>2025-06-27T21:31:16.310Z</time>
      </trkpt>
      <trkpt lat="42.66754" lon="2.94832">
        <ele>14.25237</ele>
        <time>2025-06-27T21:31:49.845Z</time>
      </trkpt>
      <trkpt lat="42.66732" lon="2.94794">
        <ele>14.542936</ele>
        <time>2025-06-27T21:32:04.652Z</time>
      </trkpt>
      <trkpt lat="42.66693" lon="2.94665">
        <ele>15.584002</ele>
        <time>2025-06-27T21:32:48.507Z</time>
      </trkpt>
      <trkpt lat="42.66656" lon="2.94537">
        <ele>16.693756</ele>
        <time>2025-06-27T21:33:31.828Z</time>
      </trkpt>
      <trkpt lat="42.66667" lon="2.94306">
        <ele>17.96439</ele>
        <time>2025-06-27T21:34:41.714Z</time>
      </trkpt>
      <trkpt lat="42.66659" lon="2.94181">
        <ele>18.260025</ele>
        <time>2025-06-27T21:35:17.061Z</time>
      </trkpt>
      <trkpt lat="42.6668" lon="2.94194">
        <ele>18.313001</ele>
        <time>2025-06-27T21:35:22.339Z</time>
      </trkpt>
      <trkpt lat="42.66846" lon="2.94212">
        <ele>18.712199</ele>
        <time>2025-06-27T21:36:00.360Z</time>
      </trkpt>
      <trkpt lat="42.66873" lon="2.94215">
        <ele>18.781019</ele>
        <time>2025-06-27T21:36:06.887Z</time>
      </trkpt>
      <trkpt lat="42.66938" lon="2.94212">
        <ele>18.943975</ele>
        <time>2025-06-27T21:36:22.543Z</time>
      </trkpt>
      <trkpt lat="42.66988" lon="2.94193">
        <ele>19.30594</ele>
        <time>2025-06-27T21:36:35.150Z</time>
      </trkpt>
      <trkpt lat="42.67029" lon="2.94173">
        <ele>19.626608</ele>
        <time>2025-06-27T21:36:46.541Z</time>
      </trkpt>
      <trkpt lat="42.67086" lon="2.94149">
        <ele>20.060882</ele>
        <time>2025-06-27T21:37:02.399Z</time>
      </trkpt>
      <trkpt lat="42.67104" lon="2.94144">
        <ele>20.191611</ele>
        <time>2025-06-27T21:37:07.228Z</time>
      </trkpt>
      <trkpt lat="42.67126" lon="2.94138">
        <ele>20.362856</ele>
        <time>2025-06-27T21:37:13.264Z</time>
      </trkpt>
      <trkpt lat="42.67176" lon="2.94017">
        <ele>21.167294</ele>
        <time>2025-06-27T21:37:55.912Z</time>
      </trkpt>
      <trkpt lat="42.67231" lon="2.93894">
        <ele>22.062583</ele>
        <time>2025-06-27T21:38:38.125Z</time>
      </trkpt>
      <trkpt lat="42.67237" lon="2.93879">
        <ele>22.178106</ele>
        <time>2025-06-27T21:38:43.117Z</time>
      </trkpt>
      <trkpt lat="42.67265" lon="2.93838">
        <ele>22.568398</ele>
        <time>2025-06-27T21:39:00.180Z</time>
      </trkpt>
      <trkpt lat="42.67282" lon="2.93811">
        <ele>22.815457</ele>
        <time>2025-06-27T21:39:11.208Z</time>
      </trkpt>
      <trkpt lat="42.67287" lon="2.938">
        <ele>22.903696</ele>
        <time>2025-06-27T21:39:15.193Z</time>
      </trkpt>
      <trkpt lat="42.67311" lon="2.93747">
        <ele>23.339937</ele>
        <time>2025-06-27T21:39:35.094Z</time>
      </trkpt>
      <trkpt lat="42.67366" lon="2.93609">
        <ele>25.190557</ele>
        <time>2025-06-27T21:40:26.929Z</time>
      </trkpt>
      <trkpt lat="42.67385" lon="2.9356">
        <ele>25.860048</ele>
        <time>2025-06-27T21:40:45.777Z</time>
      </trkpt>
      <trkpt lat="42.67421" lon="2.93486">
        <ele>27.004842</ele>
        <time>2025-06-27T21:41:15.662Z</time>
      </trkpt>
      <trkpt lat="42.67427" lon="2.9348">
        <ele>27.144266</ele>
        <time>2025-06-27T21:41:19.137Z</time>
      </trkpt>
      <trkpt lat="42.67433" lon="2.93475">
        <ele>27.266029</ele>
        <time>2025-06-27T21:41:22.158Z</time>
      </trkpt>
      <trkpt lat="42.67477" lon="2.93395">
        <ele>28.629734</ele>
        <time>2025-06-27T21:41:56.181Z</time>
      </trkpt>
      <trkpt lat="42.67515" lon="2.93321">
        <ele>29.786303</ele>
        <time>2025-06-27T21:42:27.310Z</time>
      </trkpt>
      <trkpt lat="42.67586" lon="2.93241">
        <ele>31.045768</ele>
        <time>2025-06-27T21:43:09.530Z</time>
      </trkpt>
      <trkpt lat="42.67594" lon="2.9326">
        <ele>31.269401</ele>
        <time>2025-06-27T21:43:14.180Z</time>
      </trkpt>
      <trkpt lat="42.67638" lon="2.93148">
        <ele>32.189364</ele>
        <time>2025-06-27T21:43:52.125Z</time>
      </trkpt>
      <trkpt lat="42.67649" lon="2.93126">
        <ele>32.259848</ele>
        <time>2025-06-27T21:43:59.713Z</time>
      </trkpt>
      <trkpt lat="42.67684" lon="2.93077">
        <ele>32.434992</ele>
        <time>2025-06-27T21:44:18.531Z</time>
      </trkpt>
      <trkpt lat="42.67744" lon="2.92935">
        <ele>33.156589</ele>
        <time>2025-06-27T21:45:05.216Z</time>
      </trkpt>
      <trkpt lat="42.67764" lon="2.92886">
        <ele>33.568957</ele>
        <time>2025-06-27T21:45:21.369Z</time>
      </trkpt>
      <trkpt lat="42.67767" lon="2.92879">
        <ele>33.621516</ele>
        <time>2025-06-27T21:45:23.444Z</time>
      </trkpt>
      <trkpt lat="42.67771" lon="2.92866">
        <ele>33.728188</ele>
        <time>2025-06-27T21:45:27.744Z</time>
      </trkpt>
      <trkpt lat="42.67774" lon="2.92848">
        <ele>33.868969</ele>
        <time>2025-06-27T21:45:33.592Z</time>
      </trkpt>
      <trkpt lat="42.67781" lon="2.92771">
        <ele>34.442008</ele>
        <time>2025-06-27T21:45:58.871Z</time>
      </trkpt>
      <trkpt lat="42.67789" lon="2.92738">
        <ele>35.013426</ele>
        <time>2025-06-27T21:46:11.033Z</time>
      </trkpt>
      <trkpt lat="42.67792" lon="2.92732">
        <ele>35.175635</ele>
        <time>2025-06-27T21:46:14.031Z</time>
      </trkpt>
      <trkpt lat="42.67795" lon="2.92728">
        <ele>35.267193</ele>
        <time>2025-06-27T21:46:15.767Z</time>
      </trkpt>
      <trkpt lat="42.67798" lon="2.92729">
        <ele>35.349679</ele>
        <time>2025-06-27T21:46:17.324Z</time>
      </trkpt>
      <trkpt lat="42.67852" lon="2.92668">
        <ele>37.261068</ele>
        <time>2025-06-27T21:46:54.184Z</time>
      </trkpt>
      <trkpt lat="42.67878" lon="2.9263">
        <ele>38.303702</ele>
        <time>2025-06-27T21:47:15.141Z</time>
      </trkpt>
      <trkpt lat="42.67879" lon="2.92571">
        <ele>39.399049</ele>
        <time>2025-06-27T21:47:37.729Z</time>
      </trkpt>
      <trkpt lat="42.67869" lon="2.9246">
        <ele>39.813279</ele>
        <time>2025-06-27T21:48:15.296Z</time>
      </trkpt>
      <trkpt lat="42.67857" lon="2.92452">
        <ele>39.880599</ele>
        <time>2025-06-27T21:48:20.262Z</time>
      </trkpt>
      <trkpt lat="42.67851" lon="2.92444">
        <ele>39.924975</ele>
        <time>2025-06-27T21:48:23.454Z</time>
      </trkpt>
      <trkpt lat="42.67837" lon="2.92402">
        <ele>40.093362</ele>
        <time>2025-06-27T21:48:35.293Z</time>
      </trkpt>
      <trkpt lat="42.67837" lon="2.92393">
        <ele>40.126817</ele>
        <time>2025-06-27T21:48:37.625Z</time>
      </trkpt>
      <trkpt lat="42.67831" lon="2.92384">
        <ele>40.174268</ele>
        <time>2025-06-27T21:48:39.428Z</time>
      </trkpt>
      <trkpt lat="42.67822" lon="2.92376">
        <ele>40.228372</ele>
        <time>2025-06-27T21:48:41.491Z</time>
      </trkpt>
      <trkpt lat="42.67779" lon="2.92375">
        <ele>39.73991</ele>
        <time>2025-06-27T21:48:49.351Z</time>
      </trkpt>
      <trkpt lat="42.67776" lon="2.92371">
        <ele>39.662224</ele>
        <time>2025-06-27T21:48:50.133Z</time>
      </trkpt>
      <trkpt lat="42.67704" lon="2.92176">
        <ele>36.924508</ele>
        <time>2025-06-27T21:49:19.521Z</time>
      </trkpt>
      <trkpt lat="42.6774" lon="2.92164">
        <ele>36.599785</ele>
        <time>2025-06-27T21:49:27.132Z</time>
      </trkpt>
      <trkpt lat="42.67779" lon="2.92145">
        <ele>36.232529</ele>
        <time>2025-06-27T21:49:35.953Z</time>
      </trkpt>
      <trkpt lat="42.67821" lon="2.92122">
        <ele>35.831414</ele>
        <time>2025-06-27T21:49:45.862Z</time>
      </trkpt>
      <trkpt lat="42.67858" lon="2.92095">
        <ele>35.462292</ele>
        <time>2025-06-27T21:49:55.050Z</time>
      </trkpt>
      <trkpt lat="42.67918" lon="2.92025">
        <ele>35.00484</ele>
        <time>2025-06-27T21:50:12.123Z</time>
      </trkpt>
      <trkpt lat="42.67949" lon="2.91982">
        <ele>34.751604</ele>
        <time>2025-06-27T21:50:21.437Z</time>
      </trkpt>
      <trkpt lat="42.67965" lon="2.9195">
        <ele>34.589287</ele>
        <time>2025-06-27T21:50:27.515Z</time>
      </trkpt>
      <trkpt lat="42.67982" lon="2.91938">
        <ele>34.477881</ele>
        <time>2025-06-27T21:50:32.894Z</time>
      </trkpt>
      <trkpt lat="42.68001" lon="2.91906">
        <ele>34.436506</ele>
        <time>2025-06-27T21:50:39.349Z</time>
      </trkpt>
      <trkpt lat="42.68037" lon="2.91835">
        <ele>34.457105</ele>
        <time>2025-06-27T21:50:53.245Z</time>
      </trkpt>
      <trkpt lat="42.68051" lon="2.91802">
        <ele>34.466362</ele>
        <time>2025-06-27T21:50:59.658Z</time>
      </trkpt>
      <trkpt lat="42.68054" lon="2.91794">
        <ele>34.468425</ele>
        <time>2025-06-27T21:51:01.184Z</time>
      </trkpt>
      <trkpt lat="42.68061" lon="2.91769">
        <ele>34.47484</ele>
        <time>2025-06-27T21:51:05.912Z</time>
      </trkpt>
      <trkpt lat="42.68148" lon="2.91629">
        <ele>35.275487</ele>
        <time>2025-06-27T21:51:38.683Z</time>
      </trkpt>
      <trkpt lat="42.68198" lon="2.9155">
        <ele>35.916478</ele>
        <time>2025-06-27T21:51:59.991Z</time>
      </trkpt>
      <trkpt lat="42.68199" lon="2.91535">
        <ele>36.028247</ele>
        <time>2025-06-27T21:52:03.393Z</time>
      </trkpt>
      <trkpt lat="42.68204" lon="2.91535">
        <ele>36.109746</ele>
        <time>2025-06-27T21:52:04.778Z</time>
      </trkpt>
      <trkpt lat="42.68213" lon="2.9152">
        <ele>36.357081</ele>
        <time>2025-06-27T21:52:09.242Z</time>
      </trkpt>
      <trkpt lat="42.68217" lon="2.91515">
        <ele>36.446497</ele>
        <time>2025-06-27T21:52:10.915Z</time>
      </trkpt>
      <trkpt lat="42.68224" lon="2.91503">
        <ele>36.638508</ele>
        <time>2025-06-27T21:52:14.425Z</time>
      </trkpt>
      <trkpt lat="42.68271" lon="2.91421">
        <ele>37.939074</ele>
        <time>2025-06-27T21:52:38.748Z</time>
      </trkpt>
      <trkpt lat="42.68298" lon="2.91379">
        <ele>38.62876</ele>
        <time>2025-06-27T21:52:51.297Z</time>
      </trkpt>
      <trkpt lat="42.68301" lon="2.91376">
        <ele>38.682441</ele>
        <time>2025-06-27T21:52:52.259Z</time>
      </trkpt>
      <trkpt lat="42.68363" lon="2.91293">
        <ele>40.166088</ele>
        <time>2025-06-27T21:53:18.406Z</time>
      </trkpt>
      <trkpt lat="42.68421" lon="2.91217">
        <ele>41.543245</ele>
        <time>2025-06-27T21:53:43.143Z</time>
      </trkpt>
      <trkpt lat="42.68437" lon="2.91201">
        <ele>41.872593</ele>
        <time>2025-06-27T21:53:49.432Z</time>
      </trkpt>
      <trkpt lat="42.68461" lon="2.91185">
        <ele>42.274083</ele>
        <time>2025-06-27T21:53:58.314Z</time>
      </trkpt>
      <trkpt lat="42.68557" lon="2.91112">
        <ele>43.688991</ele>
        <time>2025-06-27T21:54:32.616Z</time>
      </trkpt>
      <trkpt lat="42.68589" lon="2.9109">
        <ele>44.149652</ele>
        <time>2025-06-27T21:54:42.122Z</time>
      </trkpt>
      <trkpt lat="42.68597" lon="2.91096">
        <ele>44.271171</ele>
        <time>2025-06-27T21:54:44.391Z</time>
      </trkpt>
      <trkpt lat="42.686" lon="2.91095">
        <ele>44.31287</ele>
        <time>2025-06-27T21:54:45.206Z</time>
      </trkpt>
      <trkpt lat="42.68604" lon="2.91088">
        <ele>44.396705</ele>
        <time>2025-06-27T21:54:46.700Z</time>
      </trkpt>
      <trkpt lat="42.68604" lon="2.91081">
        <ele>44.396434</ele>
        <time>2025-06-27T21:54:47.845Z</time>
      </trkpt>
      <trkpt lat="42.68599" lon="2.91074">
        <ele>44.355077</ele>
        <time>2025-06-27T21:54:49.622Z</time>
      </trkpt>
      <trkpt lat="42.68609" lon="2.91065">
        <ele>44.292216</ele>
        <time>2025-06-27T21:54:52.961Z</time>
      </trkpt>
      <trkpt lat="42.68632" lon="2.91029">
        <ele>44.105668</ele>
        <time>2025-06-27T21:55:02.536Z</time>
      </trkpt>
      <trkpt lat="42.68653" lon="2.91005">
        <ele>43.961484</ele>
        <time>2025-06-27T21:55:09.838Z</time>
      </trkpt>
      <trkpt lat="42.68676" lon="2.90977">
        <ele>43.799131</ele>
        <time>2025-06-27T21:55:18.113Z</time>
      </trkpt>
      <trkpt lat="42.68684" lon="2.90968">
        <ele>43.742223</ele>
        <time>2025-06-27T21:55:21.055Z</time>
      </trkpt>
      <trkpt lat="42.68669" lon="2.90943">
        <ele>43.617498</ele>
        <time>2025-06-27T21:55:27.599Z</time>
      </trkpt>
      <trkpt lat="42.68659" lon="2.90939">
        <ele>43.560837</ele>
        <time>2025-06-27T21:55:30.577Z</time>
      </trkpt>
      <trkpt lat="42.68657" lon="2.90933">
        <ele>43.533936</ele>
        <time>2025-06-27T21:55:31.623Z</time>
      </trkpt>
      <trkpt lat="42.68606" lon="2.90857">
        <ele>43.445142</ele>
        <time>2025-06-27T21:55:47.351Z</time>
      </trkpt>
      <trkpt lat="42.68603" lon="2.90846">
        <ele>43.44276</ele>
        <time>2025-06-27T21:55:49.381Z</time>
      </trkpt>
      <trkpt lat="42.68605" lon="2.9083">
        <ele>43.439446</ele>
        <time>2025-06-27T21:55:52.187Z</time>
      </trkpt>
      <trkpt lat="42.68646" lon="2.90822">
        <ele>43.427584</ele>
        <time>2025-06-27T21:56:02.686Z</time>
      </trkpt>
      <trkpt lat="42.68675" lon="2.90818">
        <ele>43.419455</ele>
        <time>2025-06-27T21:56:09.727Z</time>
      </trkpt>
      <trkpt lat="42.68699" lon="2.90822">
        <ele>43.412539</ele>
        <time>2025-06-27T21:56:15.570Z</time>
      </trkpt>
      <trkpt lat="42.68719" lon="2.90826">
        <ele>43.549933</ele>
        <time>2025-06-27T21:56:20.079Z</time>
      </trkpt>
      <trkpt lat="42.68732" lon="2.90823">
        <ele>43.654888</ele>
        <time>2025-06-27T21:56:23.173Z</time>
      </trkpt>
      <trkpt lat="42.68725" lon="2.90815">
        <ele>43.723802</ele>
        <time>2025-06-27T21:56:25.168Z</time>
      </trkpt>
      <trkpt lat="42.68682" lon="2.90762">
        <ele>44.175855</ele>
        <time>2025-06-27T21:56:40.306Z</time>
      </trkpt>
      <trkpt lat="42.68668" lon="2.90732">
        <ele>44.378454</ele>
        <time>2025-06-27T21:56:47.415Z</time>
      </trkpt>
      <trkpt lat="42.68667" lon="2.90724">
        <ele>44.424561</ele>
        <time>2025-06-27T21:56:49.050Z</time>
      </trkpt>
      <trkpt lat="42.68671" lon="2.9071">
        <ele>44.510109</ele>
        <time>2025-06-27T21:56:51.957Z</time>
      </trkpt>
      <trkpt lat="42.6867" lon="2.90695">
        <ele>44.595142</ele>
        <time>2025-06-27T21:56:54.992Z</time>
      </trkpt>
      <trkpt lat="42.68668" lon="2.90689">
        <ele>44.632565</ele>
        <time>2025-06-27T21:56:56.369Z</time>
      </trkpt>
      <trkpt lat="42.68664" lon="2.90678">
        <ele>44.701542</ele>
        <time>2025-06-27T21:56:58.885Z</time>
      </trkpt>
      <trkpt lat="42.68657" lon="2.90671">
        <ele>44.770328</ele>
        <time>2025-06-27T21:57:01.483Z</time>
      </trkpt>
      <trkpt lat="42.68652" lon="2.90668">
        <ele>44.807594</ele>
        <time>2025-06-27T21:57:02.837Z</time>
      </trkpt>
      <trkpt lat="42.68646" lon="2.90666">
        <ele>44.916633</ele>
        <time>2025-06-27T21:57:04.893Z</time>
      </trkpt>
      <trkpt lat="42.68638" lon="2.90656">
        <ele>45.081117</ele>
        <time>2025-06-27T21:57:08.080Z</time>
      </trkpt>
      <trkpt lat="42.68633" lon="2.90644">
        <ele>45.231071</ele>
        <time>2025-06-27T21:57:11.103Z</time>
      </trkpt>
      <trkpt lat="42.68642" lon="2.90589">
        <ele>45.862184</ele>
        <time>2025-06-27T21:57:24.291Z</time>
      </trkpt>
      <trkpt lat="42.68678" lon="2.90412">
        <ele>47.732279</ele>
        <time>2025-06-27T21:58:05.425Z</time>
      </trkpt>
      <trkpt lat="42.68694" lon="2.90328">
        <ele>48.168921</ele>
        <time>2025-06-27T21:58:21.270Z</time>
      </trkpt>
      <trkpt lat="42.68695" lon="2.90322">
        <ele>48.198962</ele>
        <time>2025-06-27T21:58:22.319Z</time>
      </trkpt>
      <trkpt lat="42.68698" lon="2.90306">
        <ele>48.282745</ele>
        <time>2025-06-27T21:58:25.275Z</time>
      </trkpt>
      <trkpt lat="42.68705" lon="2.90267">
        <ele>48.483118</ele>
        <time>2025-06-27T21:58:32.126Z</time>
      </trkpt>
      <trkpt lat="42.68721" lon="2.90188">
        <ele>48.827596</ele>
        <time>2025-06-27T21:58:46.555Z</time>
      </trkpt>
      <trkpt lat="42.68722" lon="2.90179">
        <ele>48.845032</ele>
        <time>2025-06-27T21:58:48.341Z</time>
      </trkpt>
      <trkpt lat="42.68724" lon="2.90169">
        <ele>48.862811</ele>
        <time>2025-06-27T21:58:50.155Z</time>
      </trkpt>
      <trkpt lat="42.68731" lon="2.90137">
        <ele>48.921716</ele>
        <time>2025-06-27T21:58:56.310Z</time>
      </trkpt>
      <trkpt lat="42.68733" lon="2.90127">
        <ele>48.939324</ele>
        <time>2025-06-27T21:58:58.234Z</time>
      </trkpt>
      <trkpt lat="42.68738" lon="2.90099">
        <ele>48.991805</ele>
        <time>2025-06-27T21:59:03.944Z</time>
      </trkpt>
      <trkpt lat="42.68749" lon="2.90088">
        <ele>49.023608</ele>
        <time>2025-06-27T21:59:07.338Z</time>
      </trkpt>
      <trkpt lat="42.68759" lon="2.90078">
        <ele>49.054426</ele>
        <time>2025-06-27T21:59:10.592Z</time>
      </trkpt>
      <trkpt lat="42.68762" lon="2.90073">
        <ele>49.064672</ele>
        <time>2025-06-27T21:59:11.702Z</time>
      </trkpt>
      <trkpt lat="42.68777" lon="2.90053">
        <ele>49.115992</ele>
        <time>2025-06-27T21:59:16.981Z</time>
      </trkpt>
      <trkpt lat="42.68804" lon="2.90039">
        <ele>49.185549</ele>
        <time>2025-06-27T21:59:23.227Z</time>
      </trkpt>
      <trkpt lat="42.68814" lon="2.90033">
        <ele>49.210958</ele>
        <time>2025-06-27T21:59:25.448Z</time>
      </trkpt>
      <trkpt lat="42.68816" lon="2.90022">
        <ele>49.201332</ele>
        <time>2025-06-27T21:59:27.187Z</time>
      </trkpt>
      <trkpt lat="42.68833" lon="2.89944">
        <ele>48.438122</ele>
        <time>2025-06-27T21:59:39.077Z</time>
      </trkpt>
      <trkpt lat="42.68841" lon="2.89908">
        <ele>48.092433</ele>
        <time>2025-06-27T21:59:44.407Z</time>
      </trkpt>
      <trkpt lat="42.68847" lon="2.89899">
        <ele>47.977173</ele>
        <time>2025-06-27T21:59:46.172Z</time>
      </trkpt>
      <trkpt lat="42.68907" lon="2.89823">
        <ele>46.939343</ele>
        <time>2025-06-27T22:00:01.436Z</time>
      </trkpt>
      <trkpt lat="42.68945" lon="2.8976">
        <ele>45.812382</ele>
        <time>2025-06-27T22:00:12.717Z</time>
      </trkpt>
      <trkpt lat="42.68985" lon="2.89693">
        <ele>44.611745</ele>
        <time>2025-06-27T22:00:24.554Z</time>
      </trkpt>
      <trkpt lat="42.68994" lon="2.89672">
        <ele>44.272458</ele>
        <time>2025-06-27T22:00:27.856Z</time>
      </trkpt>
      <trkpt lat="42.69" lon="2.89621">
        <ele>43.556296</ele>
        <time>2025-06-27T22:00:34.755Z</time>
      </trkpt>
      <trkpt lat="42.69011" lon="2.89485">
        <ele>41.577328</ele>
        <time>2025-06-27T22:00:52.910Z</time>
      </trkpt>
      <trkpt lat="42.69018" lon="2.89413">
        <ele>40.539513</ele>
        <time>2025-06-27T22:01:02.692Z</time>
      </trkpt>
      <trkpt lat="42.69015" lon="2.89405">
        <ele>40.408471</ele>
        <time>2025-06-27T22:01:03.948Z</time>
      </trkpt>
      <trkpt lat="42.69013" lon="2.89397">
        <ele>40.286313</ele>
        <time>2025-06-27T22:01:05.187Z</time>
      </trkpt>
      <trkpt lat="42.69012" lon="2.89392">
        <ele>40.21232</ele>
        <time>2025-06-27T22:01:05.921Z</time>
      </trkpt>
      <trkpt lat="42.69004" lon="2.89379">
        <ele>39.980232</ele>
        <time>2025-06-27T22:01:08.454Z</time>
      </trkpt>
      <trkpt lat="42.6905" lon="2.89254">
        <ele>38.644098</ele>
        <time>2025-06-27T22:01:28.339Z</time>
      </trkpt>
      <trkpt lat="42.6906" lon="2.8923">
        <ele>38.386998</ele>
        <time>2025-06-27T22:01:32.203Z</time>
      </trkpt>
      <trkpt lat="42.69077" lon="2.89257">
        <ele>38.051848</ele>
        <time>2025-06-27T22:01:37.267Z</time>
      </trkpt>
      <trkpt lat="42.69092" lon="2.89243">
        <ele>37.818381</ele>
        <time>2025-06-27T22:01:40.783Z</time>
      </trkpt>
      <trkpt lat="42.69119" lon="2.89217">
        <ele>37.479324</ele>
        <time>2025-06-27T22:01:47.411Z</time>
      </trkpt>
      <trkpt lat="42.69119" lon="2.89211">
        <ele>37.443504</ele>
        <time>2025-06-27T22:01:48.223Z</time>
      </trkpt>
      <trkpt lat="42.69125" lon="2.89187">
        <ele>37.276759</ele>
        <time>2025-06-27T22:01:52.068Z</time>
      </trkpt>
      <trkpt lat="42.69143" lon="2.89098">
        <ele>36.678906</ele>
        <time>2025-06-27T22:02:05.577Z</time>
      </trkpt>
      <trkpt lat="42.69121" lon="2.89091">
        <ele>36.474051</ele>
        <time>2025-06-27T22:02:10.257Z</time>
      </trkpt>
      <trkpt lat="42.69105" lon="2.89072">
        <ele>36.287664</ele>
        <time>2025-06-27T22:02:14.579Z</time>
      </trkpt>
      <trkpt lat="42.6913" lon="2.89037">
        <ele>35.995608</ele>
        <time>2025-06-27T22:02:21.864Z</time>
      </trkpt>
      <trkpt lat="42.69157" lon="2.88999">
        <ele>35.721316</ele>
        <time>2025-06-27T22:02:29.870Z</time>
      </trkpt>
      <trkpt lat="42.6918" lon="2.88969">
        <ele>35.496473</ele>
        <time>2025-06-27T22:02:36.329Z</time>
      </trkpt>
      <trkpt lat="42.69155" lon="2.88939">
        <ele>35.261811</ele>
        <time>2025-06-27T22:02:43.246Z</time>
      </trkpt>
      <trkpt lat="42.69192" lon="2.88888">
        <ele>34.891394</ele>
        <time>2025-06-27T22:02:54.726Z</time>
      </trkpt>
      <trkpt lat="42.69179" lon="2.88871">
        <ele>34.795296</ele>
        <time>2025-06-27T22:02:58.447Z</time>
      </trkpt>
      <trkpt lat="42.69167" lon="2.88855">
        <ele>34.731514</ele>
        <time>2025-06-27T22:03:02.119Z</time>
      </trkpt>
      <trkpt lat="42.6918" lon="2.88837">
        <ele>34.662216</ele>
        <time>2025-06-27T22:03:06.083Z</time>
      </trkpt>
      <trkpt lat="42.69154" lon="2.88801">
        <ele>34.524851</ele>
        <time>2025-06-27T22:03:13.986Z</time>
      </trkpt>
      <trkpt lat="42.69163" lon="2.88788">
        <ele>34.475733</ele>
        <time>2025-06-27T22:03:16.823Z</time>
      </trkpt>
      <trkpt lat="42.69212" lon="2.8872">
        <ele>34.214916</ele>
        <time>2025-06-27T22:03:32.483Z</time>
      </trkpt>
      <trkpt lat="42.6919" lon="2.88697">
        <ele>34.217608</ele>
        <time>2025-06-27T22:03:38.916Z</time>
      </trkpt>
      <trkpt lat="42.69194" lon="2.88691">
        <ele>34.245533</ele>
        <time>2025-06-27T22:03:40.238Z</time>
      </trkpt>
      <trkpt lat="42.692" lon="2.88681">
        <ele>34.294721</ele>
        <time>2025-06-27T22:03:42.678Z</time>
      </trkpt>
      <trkpt lat="42.69201" lon="2.88673">
        <ele>34.321926</ele>
        <time>2025-06-27T22:03:43.966Z</time>
      </trkpt>
      <trkpt lat="42.69247" lon="2.88627">
        <ele>34.608164</ele>
        <time>2025-06-27T22:03:59.166Z</time>
      </trkpt>
      <trkpt lat="42.69252" lon="2.88622">
        <ele>34.64239</ele>
        <time>2025-06-27T22:04:01.107Z</time>
      </trkpt>
      <trkpt lat="42.69284" lon="2.88589">
        <ele>34.844813</ele>
        <time>2025-06-27T22:04:12.451Z</time>
      </trkpt>
      <trkpt lat="42.69318" lon="2.88561">
        <ele>35.040922</ele>
        <time>2025-06-27T22:04:22.413Z</time>
      </trkpt>
      <trkpt lat="42.69377" lon="2.88525">
        <ele>34.576572</ele>
        <time>2025-06-27T22:04:35.812Z</time>
      </trkpt>
      <trkpt lat="42.69439" lon="2.88483">
        <ele>34.025339</ele>
        <time>2025-06-27T22:04:49.306Z</time>
      </trkpt>
      <trkpt lat="42.69443" lon="2.8848">
        <ele>33.993529</ele>
        <time>2025-06-27T22:04:50.072Z</time>
      </trkpt>
      <trkpt lat="42.69475" lon="2.8846">
        <ele>33.711463</ele>
        <time>2025-06-27T22:04:56.974Z</time>
      </trkpt>
      <trkpt lat="42.69479" lon="2.88457">
        <ele>33.674524</ele>
        <time>2025-06-27T22:04:57.886Z</time>
      </trkpt>
      <trkpt lat="42.69489" lon="2.8845">
        <ele>33.634818</ele>
        <time>2025-06-27T22:04:59.923Z</time>
      </trkpt>
      <trkpt lat="42.69455" lon="2.8833">
        <ele>33.634818</ele>
        <time>2025-06-27T22:05:20.746Z</time>
      </trkpt>
      <trkpt lat="42.6944" lon="2.88275">
        <ele>33.634818</ele>
        <time>2025-06-27T22:05:30.927Z</time>
      </trkpt>
      <trkpt lat="42.69429" lon="2.88234">
        <ele>33.634818</ele>
        <time>2025-06-27T22:05:38.183Z</time>
      </trkpt>
      <trkpt lat="42.69418" lon="2.88194">
        <ele>33.634818</ele>
        <time>2025-06-27T22:05:45.325Z</time>
      </trkpt>
    </trkseg>
  </trk>
</gpx>